M I D A S
Marine Information and Data Acquisition System
Tripno 441 of the Zeeleeuw from 2003-02-26 07:37:27 to 2003-02-26 17:27:41
Back to CruiseResearch ActivitiesStationsMapUnderway DataData graphs

EquipmentUnitsComment
TimeDGPSUTC
LatitudeDGPSDM.mWGS84
LongitudeDGPSDM.mWGS84
TemperatureSBE03/SBE38deg celciusITS90
ConductivitySBE21S/mITS90
SalinitySBE21 Practical Salinity Units
ChlorophylAChelsea fluorimeterg/lCalibrated in Aceton
Missing or incorrect values are displayed as -999
Sea surface data collected by the RV Zeeleeuw from 2003-02-26 07:37:27 to 2003-02-26 17:27:41
                                                                                    Next 1000 lines
Time Latitude Longitude Temperature Conductivity Salinity ChlorophylA
2003-02-26 07:37:33 51°13.595 2°56.103 11.655908 0.079428 0.431362 -0.882377
2003-02-26 07:37:38 51°13.595 2°56.103 11.656548 0.079428 0.431376 -0.882377
2003-02-26 07:37:43 51°13.595 2°56.103 11.657783 0.079428 0.43139 -0.848668
2003-02-26 07:37:48 51°13.595 2°56.103 11.658652 0.079428 0.431397 -0.882377
2003-02-26 07:37:53 51°13.595 2°56.103 11.658652 0.079428 0.431397 -0.882377
2003-02-26 07:37:58 51°13.594 2°56.104 11.659246 0.079428 0.431404 -0.848668
2003-02-26 07:38:03 51°13.594 2°56.103 11.659383 0.079428 0.431417 -0.882377
2003-02-26 07:38:08 51°13.594 2°56.103 11.660801 0.079428 0.431438 -0.848668
2003-02-26 07:38:13 51°13.594 2°56.103 11.662859 0.079428 0.431445 -0.848668
2003-02-26 07:38:18 51°13.594 2°56.103 11.681102 0.079428 0.431156 -0.848668
2003-02-26 07:38:23 51°13.594 2°56.102 11.681102 0.079428 0.431156 -0.848668
2003-02-26 07:38:28 51°13.595 2°56.1 10.598649 0.079428 0.431239 -0.511574
2003-02-26 07:38:33 51°13.596 2°56.097 7.837169 0.1893 1.072847 -0.646411
2003-02-26 07:38:38 51°13.596 2°56.094 6.50958 0.255524 1.470215 1.173896
2003-02-26 07:38:44 51°13.598 2°56.088 5.961217 0.349194 2.112153 1.005349
2003-02-26 07:38:49 51°13.599 2°56.083 5.68858 0.410707 2.714977 2.353725
2003-02-26 07:38:54 51°13.601 2°56.078 5.68858 0.410707 2.714977 2.353725
2003-02-26 07:38:59 51°13.603 2°56.072 5.482585 1.034715 7.808403 2.320016
2003-02-26 07:39:04 51°13.605 2°56.065 5.19887 1.424198 11.614621 5.084187
2003-02-26 07:39:09 51°13.607 2°56.058 4.973257 1.643026 14.200958 5.45499
2003-02-26 07:39:14 51°13.609 2°56.051 4.875264 2.599705 24.213279 5.252734
2003-02-26 07:39:19 51°13.611 2°56.042 4.717801 2.682696 25.589233 6.5674
2003-02-26 07:39:24 51°13.614 2°56.034 4.717801 2.682696 25.589233 6.5674
2003-02-26 07:39:29 51°13.616 2°56.025 4.595781 2.67923 25.969548 7.005623
2003-02-26 07:39:33 51°13.617 2°56.019 4.471988 2.628536 25.709403 7.443845
2003-02-26 07:39:39 51°13.619 2°56.01 4.412688 2.631274 26.029295 7.578683
2003-02-26 07:39:44 51°13.621 2°56.003 4.284737 2.608769 25.929448 7.679811
2003-02-26 07:39:48 51°13.622 2°55.998 4.243431 2.595099 25.95861 7.646101
2003-02-26 07:39:53 51°13.623 2°55.993 4.243431 2.595099 25.95861 7.646101
2003-02-26 07:39:57 51°13.624 2°55.99 4.171119 2.585109 25.974342 7.71352
2003-02-26 07:40:04 51°13.624 2°55.987 4.11899 2.569336 25.924179 7.71352
2003-02-26 07:40:08 51°13.624 2°55.986 4.066714 2.556298 25.88242 7.71352
2003-02-26 07:40:13 51°13.625 2°55.984 4.078758 2.54389 25.848179 7.578683
2003-02-26 07:40:18 51°13.626 2°55.982 4.065324 2.524648 25.702601 7.612392
2003-02-26 07:40:23 51°13.627 2°55.978 4.065324 2.524648 25.702601 7.612392
2003-02-26 07:40:28 51°13.628 2°55.973 4.029745 2.51813 25.702381 7.612392
2003-02-26 07:40:33 51°13.629 2°55.968 4.009346 2.511716 25.684273 7.544973
2003-02-26 07:40:39 51°13.632 2°55.961 4.034123 2.505934 25.671851 7.443845
2003-02-26 07:40:44 51°13.634 2°55.954 3.986775 2.496156 25.602793 7.646101
2003-02-26 07:40:49 51°13.636 2°55.946 3.923865 2.49132 25.56266 7.511264
2003-02-26 07:40:54 51°13.638 2°55.939 3.923865 2.49132 25.56266 7.511264
2003-02-26 07:40:59 51°13.641 2°55.93 3.910811 2.496051 25.644676 7.511264
2003-02-26 07:41:04 51°13.644 2°55.922 3.905908 2.490479 25.616048 7.443845
2003-02-26 07:41:09 51°13.647 2°55.913 3.878396 2.496157 25.695956 7.511264
2003-02-26 07:41:14 51°13.65 2°55.904 3.845499 2.498996 25.750774 7.443845
2003-02-26 07:41:19 51°13.653 2°55.895 3.83992 2.51624 25.963982 7.410136
2003-02-26 07:41:24 51°13.657 2°55.886 3.83992 2.51624 25.963982 7.410136
2003-02-26 07:41:29 51°13.66 2°55.877 3.845086 2.512771 25.972021 7.443845
2003-02-26 07:41:34 51°13.664 2°55.868 3.807416 2.526651 26.174568 7.207879
2003-02-26 07:41:39 51°13.667 2°55.859 3.800334 2.533066 26.293532 7.14046
2003-02-26 07:41:44 51°13.67 2°55.851 3.78622 2.534117 26.342448 7.17417
2003-02-26 07:41:48 51°13.672 2°55.844 3.764965 2.529912 26.322157 7.376426
2003-02-26 07:41:54 51°13.676 2°55.833 3.764965 2.529912 26.322157 7.376426
2003-02-26 07:41:59 51°13.679 2°55.825 3.752912 2.53927 26.456995 7.74723
2003-02-26 07:42:04 51°13.682 2°55.817 3.765172 2.52476 26.313089 8.084324
2003-02-26 07:42:09 51°13.684 2°55.809 3.758706 2.525496 26.33221 8.421418
2003-02-26 07:42:13 51°13.686 2°55.803 3.772878 2.527809 26.37871 8.657383
2003-02-26 07:42:19 51°13.689 2°55.794 3.755344 2.536958 26.497934 8.82593
2003-02-26 07:42:24 51°13.69 2°55.786 3.755344 2.536958 26.497934 8.82593
2003-02-26 07:42:28 51°13.692 2°55.781 3.761189 2.529913 26.427894 8.960768
2003-02-26 07:42:32 51°13.693 2°55.775 3.768586 2.532962 26.465031 9.163024
2003-02-26 07:42:37 51°13.695 2°55.769 3.74748 2.523499 26.357907 9.129315
2003-02-26 07:42:43 51°13.696 2°55.763 3.751257 2.511512 26.224748 9.365281
2003-02-26 07:42:48 51°13.696 2°55.76 3.749808 2.502364 26.126294 9.39899
2003-02-26 07:42:53 51°13.697 2°55.757 3.749808 2.502364 26.126294 9.39899
2003-02-26 07:42:58 51°13.697 2°55.755 3.733509 2.477971 25.848313 9.466409
2003-02-26 07:43:04 51°13.697 2°55.754 3.744893 2.468614 25.745423 9.634956
2003-02-26 07:43:08 51°13.697 2°55.754 3.752964 2.458206 25.628439 9.533828
2003-02-26 07:43:13 51°13.698 2°55.754 3.743858 2.451688 25.558757 9.533828
2003-02-26 07:43:19 51°13.698 2°55.754 3.750636 2.443593 25.474507 9.601247
2003-02-26 07:43:24 51°13.698 2°55.755 3.750636 2.443593 25.474507 9.601247
2003-02-26 07:43:28 51°13.699 2°55.755 3.767603 2.439598 25.42952 9.533828
2003-02-26 07:43:33 51°13.699 2°55.755 3.763414 2.426772 25.283621 9.466409
2003-02-26 07:43:38 51°13.699 2°55.755 3.756637 2.409427 25.083483 9.567537
2003-02-26 07:43:44 51°13.699 2°55.754 3.759482 2.411109 25.102682 9.533828
2003-02-26 07:43:48 51°13.699 2°55.753 3.770499 2.386196 24.815778 9.668665
2003-02-26 07:43:53 51°13.698 2°55.752 3.770499 2.386196 24.815778 9.668665
2003-02-26 07:43:59 51°13.698 2°55.751 3.773809 2.386616 24.820571 9.533828
2003-02-26 07:44:03 51°13.698 2°55.75 3.794699 2.367801 24.606195 9.500118
2003-02-26 07:44:09 51°13.697 2°55.749 3.801161 2.341735 24.310212 9.466409
2003-02-26 07:44:13 51°13.696 2°55.747 3.781411 2.343521 24.327888 9.39899
2003-02-26 07:44:17 51°13.695 2°55.746 3.780325 2.345308 24.345563 9.39899
2003-02-26 07:44:23 51°13.694 2°55.744 3.780325 2.345308 24.345563 9.39899
2003-02-26 07:44:28 51°13.693 2°55.742 3.780636 2.341314 24.294205 9.4327
2003-02-26 07:44:33 51°13.692 2°55.74 3.810466 2.341104 24.286538 9.365281
2003-02-26 07:44:38 51°13.691 2°55.739 3.817236 2.315565 23.997143 9.39899
2003-02-26 07:44:43 51°13.691 2°55.738 3.791856 2.32124 24.062871 9.365281
2003-02-26 07:44:49 51°13.691 2°55.738 3.792683 2.337005 24.24391 9.365281
2003-02-26 07:44:53 51°13.691 2°55.737 3.792683 2.337005 24.24391 9.365281
2003-02-26 07:44:58 51°13.691 2°55.737 3.762534 2.337636 24.248442 9.533828
2003-02-26 07:45:04 51°13.691 2°55.737 3.764448 2.356659 24.4614 9.668665
2003-02-26 07:45:08 51°13.691 2°55.737 3.770189 2.346569 24.347336 9.702375
2003-02-26 07:45:13 51°13.692 2°55.737 3.752188 2.358972 24.487701 9.769794
2003-02-26 07:45:18 51°13.692 2°55.737 3.740443 2.387773 24.829028 9.837212
2003-02-26 07:45:21 51°13.693 2°55.737 3.740443 2.387773 24.829028 9.837212
2003-02-26 07:45:29 51°13.694 2°55.737 3.734544 2.387773 24.834427 9.870922
2003-02-26 07:45:33 51°13.695 2°55.738 3.733302 2.388719 24.851967 9.803503
2003-02-26 07:45:37 51°13.696 2°55.737 3.741116 2.398705 24.970633 9.938341
2003-02-26 07:45:44 51°13.699 2°55.737 3.729524 2.403961 25.037432 10.073178
2003-02-26 07:45:48 51°13.701 2°55.736 3.737235 2.40764 25.084906 10.005759
2003-02-26 07:45:53 51°13.704 2°55.735 3.737235 2.40764 25.084906 10.005759
2003-02-26 07:45:58 51°13.706 2°55.733 3.726885 2.404066 25.05158 9.904631
2003-02-26 07:46:03 51°13.71 2°55.731 3.718552 2.401438 25.019516 10.039469
2003-02-26 07:46:09 51°13.713 2°55.729 3.722071 2.403961 25.050379 9.97205
2003-02-26 07:46:13 51°13.716 2°55.727 3.709544 2.397444 24.975255 9.938341
2003-02-26 07:46:19 51°13.721 2°55.723 3.701623 2.385986 24.849179 9.97205
2003-02-26 07:46:23 51°13.724 2°55.721 3.701623 2.385986 24.849179 9.97205
2003-02-26 07:46:28 51°13.728 2°55.717 3.702244 2.403541 25.053758 10.073178
2003-02-26 07:46:33 51°13.733 2°55.713 3.70183 2.409848 25.131323 10.241725
2003-02-26 07:46:38 51°13.738 2°55.709 3.714152 2.408692 25.122207 10.208016
2003-02-26 07:46:43 51°13.744 2°55.705 3.695979 2.392924 24.946726 10.208016
2003-02-26 07:46:49 51°13.751 2°55.699 3.690697 2.426142 25.33013 10.241725
2003-02-26 07:46:53 51°13.756 2°55.695 3.690697 2.426142 25.33013 10.241725
2003-02-26 07:46:58 51°13.762 2°55.689 3.685985 2.42446 25.313632 10.309144
2003-02-26 07:47:03 51°13.77 2°55.683 3.682152 2.417101 25.22733 10.376563
2003-02-26 07:47:09 51°13.778 2°55.676 3.685674 2.430452 25.382944 10.5114
2003-02-26 07:47:13 51°13.785 2°55.671 3.687797 2.430873 25.394681 10.54511
2003-02-26 07:47:18 51°13.793 2°55.664 3.687849 2.422989 25.309886 10.646238
2003-02-26 07:47:23 51°13.801 2°55.658 3.687849 2.422989 25.309886 10.646238
2003-02-26 07:47:28 51°13.809 2°55.651 3.684327 2.425301 25.337071 10.781076
2003-02-26 07:47:33 51°13.818 2°55.644 3.683602 2.422463 25.310076 10.814785
2003-02-26 07:47:37 51°13.825 2°55.638 3.696342 2.408271 25.14548 10.882204
2003-02-26 07:47:44 51°13.838 2°55.628 3.685104 2.413633 25.206176 10.713657
2003-02-26 07:47:48 51°13.845 2°55.623 3.675056 2.400072 25.052318 10.679947
2003-02-26 07:47:53 51°13.855 2°55.616 3.675056 2.400072 25.052318 10.679947
2003-02-26 07:47:57 51°13.862 2°55.61 3.675108 2.390717 24.946647 10.5114
2003-02-26 07:48:03 51°13.874 2°55.601 3.681841 2.387353 24.908176 10.241725
2003-02-26 07:48:08 51°13.883 2°55.594 3.673347 2.389981 24.937551 10.005759
2003-02-26 07:48:13 51°13.893 2°55.587 3.671689 2.37106 24.725301 9.634956
2003-02-26 07:48:18 51°13.903 2°55.58 3.675937 2.398916 25.04865 9.533828
2003-02-26 07:48:23 51°13.914 2°55.573 3.675937 2.398916 25.04865 9.533828
2003-02-26 07:48:28 51°13.924 2°55.566 3.670498 2.403121 25.095418 9.163024
2003-02-26 07:48:33 51°13.934 2°55.559 3.660395 2.402069 25.084752 9.028187
2003-02-26 07:48:38 51°13.944 2°55.551 3.663763 2.409428 25.171761 8.960768
2003-02-26 07:48:43 51°13.954 2°55.544 3.659981 2.407641 25.152664 8.85964
2003-02-26 07:48:49 51°13.965 2°55.536 3.655577 2.406274 25.137698 8.657383
2003-02-26 07:48:53 51°13.973 2°55.53 3.655577 2.406274 25.137698 8.657383
2003-02-26 07:48:57 51°13.981 2°55.525 3.663297 2.403751 25.112916 8.522546
2003-02-26 07:49:04 51°13.994 2°55.515 3.664954 2.403857 25.117547 8.252871
2003-02-26 07:49:08 51°14.002 2°55.509 3.664229 2.385566 24.91016 8.151742
2003-02-26 07:49:13 51°14.012 2°55.502 -999 2.391032 24.974776 8.016905
2003-02-26 07:49:18 51°14.021 2°55.494 -999 2.376842 24.81236 8.016905
2003-02-26 07:49:23 51°14.031 2°55.487 -999 2.376842 24.81236 8.016905
2003-02-26 07:49:28 51°14.041 2°55.48 -999 2.371166 24.746077 7.71352
2003-02-26 07:49:33 51°14.051 2°55.473 -999 2.36118 24.632576 7.612392
2003-02-26 07:49:37 51°14.059 2°55.467 -999 2.36055 24.627384 7.511264
2003-02-26 07:49:43 51°14.071 2°55.458 -999 2.347622 24.480309 7.410136
2003-02-26 07:49:48 51°14.081 2°55.451 -999 2.343838 24.439756 7.207879
2003-02-26 07:49:53 51°14.09 2°55.444 -999 2.343838 24.439756 7.207879
2003-02-26 07:49:58 51°14.1 2°55.436 -999 2.349514 24.503262 7.106751
2003-02-26 07:50:03 51°14.11 2°55.429 -999 2.347832 24.479369 7.039332
2003-02-26 07:50:08 51°14.12 2°55.422 -999 2.35151 24.51671 6.870785
2003-02-26 07:50:13 51°14.13 2°55.414 -999 2.363072 24.648821 6.837076
2003-02-26 07:50:18 51°14.139 2°55.406 -999 2.369799 24.72505 6.702238
2003-02-26 07:50:23 51°14.149 2°55.398 -999 2.369799 24.72505 6.702238
2003-02-26 07:50:29 51°14.161 2°55.388 -999 2.372953 24.761108 6.634819
2003-02-26 07:50:33 51°14.168 2°55.381 -999 2.375475 24.796049 6.634819
2003-02-26 07:50:37 51°14.176 2°55.374 -999 2.37947 24.846497 6.702238
2003-02-26 07:50:44 51°14.189 2°55.361 -999 2.388194 24.94705 6.702238
2003-02-26 07:50:48 51°14.196 2°55.353 -999 2.396288 25.034279 6.837076
2003-02-26 07:50:53 51°14.205 2°55.343 -999 2.396288 25.034279 6.837076
2003-02-26 07:50:58 51°14.214 2°55.333 -999 2.398285 25.057154 6.735947
2003-02-26 07:51:03 51°14.223 2°55.322 -999 2.389455 24.953317 6.837076
2003-02-26 07:51:08 51°14.231 2°55.311 -999 2.391978 24.98629 6.938204
2003-02-26 07:51:13 51°14.239 2°55.3 -999 2.398285 25.067419 7.039332
2003-02-26 07:51:19 51°14.249 2°55.286 -999 2.384725 24.918903 7.073042
2003-02-26 07:51:24 51°14.257 2°55.273 -999 2.384725 24.918903 7.073042
2003-02-26 07:51:28 51°14.263 2°55.263 -999 2.410795 25.221826 6.870785
2003-02-26 07:51:33 51°14.27 2°55.25 -999 2.405644 25.16481 7.005623
2003-02-26 07:51:39 51°14.279 2°55.234 -999 2.404908 25.155684 6.971913
2003-02-26 07:51:42 51°14.284 2°55.226 -999 2.403857 25.141568 7.005623
2003-02-26 07:51:48 51°14.292 2°55.21 -999 2.395447 25.043792 7.039332
2003-02-26 07:51:53 51°14.299 2°55.196 -999 2.395447 25.043792 7.039332
2003-02-26 07:51:58 51°14.306 2°55.182 -999 2.38441 24.918695 7.073042
2003-02-26 07:52:03 51°14.312 2°55.169 -999 2.379785 24.864364 7.073042
2003-02-26 07:52:08 51°14.319 2°55.155 -999 2.368223 24.731324 7.106751
2003-02-26 07:52:13 51°14.325 2°55.14 -999 2.358238 24.617754 7.17417
2003-02-26 07:52:17 51°14.33 2°55.129 -999 2.346991 24.489822 7.073042
2003-02-26 07:52:23 51°14.338 2°55.111 -999 2.346991 24.489822 7.073042
2003-02-26 07:52:29 51°14.345 2°55.094 -999 2.35088 24.534283 7.17417
2003-02-26 07:52:33 51°14.35 2°55.082 -999 2.355505 24.585826 6.938204
2003-02-26 07:52:37 51°14.356 2°55.069 -999 2.37926 24.855629 6.938204
2003-02-26 07:52:44 51°14.367 2°55.047 -999 2.386723 24.941779 6.837076
2003-02-26 07:52:48 51°14.374 2°55.034 -999 2.414789 25.272488 6.803366
2003-02-26 07:52:53 51°14.384 2°55.019 -999 2.414789 25.272488 6.803366
2003-02-26 07:52:58 51°14.395 2°55.006 -999 2.446433 25.642223 6.769657
2003-02-26 07:53:03 51°14.407 2°54.993 -999 2.453371 25.729049 6.668529
2003-02-26 07:53:08 51°14.42 2°54.982 -999 2.469667 25.914484 6.668529
2003-02-26 07:53:13 51°14.434 2°54.971 -999 2.486594 26.112322 6.668529
2003-02-26 07:53:19 51°14.451 2°54.959 -999 2.495742 26.222074 6.702238
2003-02-26 07:53:23 51°14.462 2°54.952 -999 2.495742 26.222074 6.702238
2003-02-26 07:53:28 51°14.477 2°54.942 -999 2.505836 26.337071 6.634819
2003-02-26 07:53:33 51°14.491 2°54.932 -999 2.51656 26.40164 6.499982
2003-02-26 07:53:38 51°14.505 2°54.921 -999 2.52739 26.442018 6.466272
2003-02-26 07:53:43 51°14.52 2°54.911 -999 2.532751 26.412428 6.432563
2003-02-26 07:53:48 51°14.535 2°54.901 -999 2.575445 26.909174 6.466272
2003-02-26 07:53:53 51°14.55 2°54.891 -999 2.575445 26.909174 6.466272
2003-02-26 07:53:57 51°14.561 2°54.884 -999 2.612044 27.383153 6.432563
2003-02-26 07:54:03 51°14.58 2°54.873 -999 2.635498 27.719856 6.499982
2003-02-26 07:54:08 51°14.595 2°54.865 -999 2.652433 27.963002 6.02805
2003-02-26 07:54:13 51°14.61 2°54.857 -999 2.665896 28.12607 5.825794
2003-02-26 07:54:18 51°14.625 2°54.848 -999 2.687459 28.38034 5.724665
2003-02-26 07:54:23 51°14.641 2°54.84 -999 2.687459 28.38034 5.724665
2003-02-26 07:54:28 51°14.656 2°54.831 -999 2.703869 28.579684 5.758375
2003-02-26 07:54:33 51°14.672 2°54.821 -999 2.713126 28.68505 5.657247
2003-02-26 07:54:38 51°14.687 2°54.812 -999 2.727118 28.855811 5.690956
2003-02-26 07:54:43 51°14.701 2°54.801 -999 2.717439 28.750948 5.724665
2003-02-26 07:54:48 51°14.716 2°54.791 -999 2.737638 28.997398 5.724665
2003-02-26 07:54:53 51°14.73 2°54.779 -999 2.737638 28.997398 5.724665
2003-02-26 07:54:58 51°14.745 2°54.767 -999 2.745633 29.106576 5.623537
2003-02-26 07:55:03 51°14.759 2°54.755 -999 2.744792 29.116656 5.522409
2003-02-26 07:55:08 51°14.773 2°54.743 -999 2.73869 29.056521 5.4887
2003-02-26 07:55:13 51°14.787 2°54.731 -999 2.742583 29.109171 5.522409
2003-02-26 07:55:19 51°14.804 2°54.717 -999 2.742583 29.115549 5.45499
2003-02-26 07:55:23 51°14.815 2°54.708 -999 2.742583 29.115549 5.45499
2003-02-26 07:55:28 51°14.83 2°54.696 -999 2.730274 28.980435 5.421281
2003-02-26 07:55:33 51°14.844 2°54.685 -999 2.747422 29.191318 5.320153
2003-02-26 07:55:38 51°14.859 2°54.674 -999 2.749316 29.225492 5.286443
2003-02-26 07:55:43 51°14.874 2°54.664 -999 2.751631 29.263823 5.084187
2003-02-26 07:55:48 51°14.888 2°54.652 -999 2.751105 29.263282 5.084187
2003-02-26 07:55:54 51°14.905 2°54.637 -999 2.751105 29.263282 5.084187
2003-02-26 07:55:59 51°14.919 2°54.625 -999 2.734904 29.074366 5.117896
2003-02-26 07:56:03 51°14.931 2°54.616 -999 2.747528 29.226996 4.91564
2003-02-26 07:56:08 51°14.945 2°54.605 -999 2.725015 28.965002 4.949349
2003-02-26 07:56:13 51°14.96 2°54.595 -999 2.744687 29.198531 4.949349
2003-02-26 07:56:19 51°14.978 2°54.583 -999 2.744898 29.202599 4.747093
2003-02-26 07:56:22 51°14.987 2°54.577 -999 2.744898 29.202599 4.747093
2003-02-26 07:56:28 51°15.005 2°54.565 -999 2.742794 29.178751 4.780802
2003-02-26 07:56:33 51°15.02 2°54.554 -999 2.734904 29.09033 4.713383
2003-02-26 07:56:37 51°15.032 2°54.546 -999 2.738165 29.130928 4.679674
2003-02-26 07:56:43 51°15.049 2°54.533 -999 2.746371 29.224669 4.679674
2003-02-26 07:56:49 51°15.066 2°54.518 -999 2.745845 29.220109 4.645965
2003-02-26 07:56:53 51°15.078 2°54.509 -999 2.745845 29.220109 4.645965
2003-02-26 07:56:58 51°15.092 2°54.497 -999 2.731327 29.041268 4.612255
2003-02-26 07:57:03 51°15.107 2°54.486 -999 2.737008 29.113375 4.544836
2003-02-26 07:57:08 51°15.122 2°54.475 -999 2.718493 28.906143 4.511127
2003-02-26 07:57:13 51°15.137 2°54.465 -999 2.748054 29.262069 4.477418
2003-02-26 07:57:18 51°15.152 2°54.455 -999 2.737429 29.140704 4.443708
2003-02-26 07:57:23 51°15.167 2°54.445 -999 2.737429 29.140704 4.443708
2003-02-26 07:57:29 51°15.186 2°54.435 -999 2.732695 29.085219 4.443708
2003-02-26 07:57:33 51°15.199 2°54.429 -999 2.734904 29.107112 4.409999
2003-02-26 07:57:37 51°15.212 2°54.424 -999 2.745319 29.229996 4.308871
2003-02-26 07:57:44 51°15.234 2°54.414 -999 2.742794 29.203602 4.275161
2003-02-26 07:57:48 51°15.247 2°54.408 -999 2.712602 28.849873 4.275161
2003-02-26 07:57:53 51°15.263 2°54.401 -999 2.712602 28.849873 4.275161
2003-02-26 07:57:58 51°15.278 2°54.392 -999 2.734799 29.108278 4.275161
2003-02-26 07:58:03 51°15.294 2°54.384 -999 2.727855 29.020543 4.241452
2003-02-26 07:58:09 51°15.312 2°54.374 -999 2.739217 29.15606 4.275161
2003-02-26 07:58:13 51°15.324 2°54.366 -999 2.743215 29.206931 4.241452
2003-02-26 07:58:18 51°15.339 2°54.356 -999 2.734273 29.112511 4.275161
2003-02-26 07:58:24 51°15.358 2°54.345 -999 2.734273 29.112511 4.275161
2003-02-26 07:58:28 51°15.37 2°54.337 -999 2.735009 29.122745 4.140324
2003-02-26 07:58:33 51°15.385 2°54.327 -999 2.732695 29.10041 4.241452
2003-02-26 07:58:38 51°15.4 2°54.318 -999 2.733221 29.109779 4.072905
2003-02-26 07:58:44 51°15.419 2°54.308 -999 2.740269 29.194054 4.005486
2003-02-26 07:58:48 51°15.432 2°54.301 -999 2.718914 28.943657 4.005486
2003-02-26 07:58:53 51°15.447 2°54.293 -999 2.718914 28.943657 4.005486
2003-02-26 07:58:57 51°15.46 2°54.288 -999 2.736482 29.148025 4.072905
2003-02-26 07:59:04 51°15.482 2°54.277 -999 2.74069 29.192569 3.938067
2003-02-26 07:59:08 51°15.495 2°54.271 -999 2.739112 29.170854 3.904358
2003-02-26 07:59:13 51°15.51 2°54.263 -999 2.750158 29.297208 3.870648
2003-02-26 07:59:19 51°15.53 2°54.254 -999 2.744898 29.23711 3.938067
2003-02-26 07:59:23 51°15.542 2°54.248 -999 2.744898 29.23711 3.938067
2003-02-26 07:59:29 51°15.562 2°54.242 -999 2.745214 29.244027 3.80323
2003-02-26 07:59:33 51°15.575 2°54.239 -999 2.746687 29.269351 3.870648
2003-02-26 07:59:38 51°15.591 2°54.235 -999 2.743005 29.229359 3.76952
2003-02-26 07:59:43 51°15.608 2°54.231 -999 2.74048 29.203749 3.80323
2003-02-26 07:59:49 51°15.628 2°54.227 -999 2.749527 29.310747 3.80323
2003-02-26 07:59:53 51°15.641 2°54.224 -999 2.749527 29.310747 3.80323
2003-02-26 07:59:57 51°15.654 2°54.222 -999 2.747949 29.293026 3.80323
2003-02-26 08:00:04 51°15.677 2°54.216 -999 2.737008 29.163816 3.76952
2003-02-26 08:00:08 51°15.691 2°54.213 -999 2.735535 29.146537 3.702101
2003-02-26 08:00:13 51°15.707 2°54.209 -999 2.732485 29.11315 3.735811
2003-02-26 08:00:18 51°15.724 2°54.204 -999 2.742794 29.233321 3.76952
2003-02-26 08:00:23 51°15.74 2°54.2 -999 2.742794 29.233321 3.76952
2003-02-26 08:00:28 51°15.756 2°54.195 -999 2.737429 29.166347 3.668392
2003-02-26 08:00:33 51°15.773 2°54.189 -999 2.744898 29.250777 3.634683
2003-02-26 08:00:38 51°15.789 2°54.184 -999 2.746792 29.270586 3.600973
2003-02-26 08:00:42 51°15.802 2°54.18 -999 2.74332 29.226633 3.567264
2003-02-26 08:00:48 51°15.822 2°54.174 -999 2.739954 29.184734 3.600973
2003-02-26 08:00:53 51°15.837 2°54.17 -999 2.739954 29.184734 3.600973
2003-02-26 08:00:57 51°15.849 2°54.168 -999 2.750053 29.304027 3.634683
2003-02-26 08:01:03 51°15.868 2°54.164 -999 2.751105 29.315567 3.600973
2003-02-26 08:01:08 51°15.882 2°54.162 -999 2.743004 29.218111 3.634683
2003-02-26 08:01:13 51°15.897 2°54.161 -999 2.75384 29.34525 3.634683
2003-02-26 08:01:18 51°15.912 2°54.159 -999 2.751842 29.323404 3.600973
2003-02-26 08:01:24 51°15.929 2°54.157 -999 2.751842 29.323404 3.600973
2003-02-26 08:01:28 51°15.94 2°54.156 -999 2.754156 29.347341 3.499845
2003-02-26 08:01:33 51°15.954 2°54.155 -999 2.75342 29.337892 3.533554
2003-02-26 08:01:38 51°15.968 2°54.153 -999 2.745109 29.240381 3.533554
2003-02-26 08:01:43 51°15.982 2°54.152 -999 2.746581 29.256855 3.432426
2003-02-26 08:01:49 51°15.998 2°54.151 -999 2.746687 29.258893 3.432426
2003-02-26 08:01:53 51°16.009 2°54.15 -999 2.746687 29.258893 3.432426
2003-02-26 08:01:57 51°16.02 2°54.149 -999 2.747739 29.273648 3.398717
2003-02-26 08:02:04 51°16.039 2°54.147 -999 2.739112 29.173259 3.466136
2003-02-26 08:02:08 51°16.05 2°54.145 -999 2.75079 29.309446 3.398717
2003-02-26 08:02:13 51°16.063 2°54.143 -999 2.747844 29.275687 3.331298
2003-02-26 08:02:19 51°16.079 2°54.144 -999 2.748791 29.290823 3.297589
2003-02-26 08:02:24 51°16.092 2°54.146 -999 2.748791 29.290823 3.297589
2003-02-26 08:02:28 51°16.103 2°54.15 -999 2.75079 29.314281 3.263879
2003-02-26 08:02:33 51°16.116 2°54.157 -999 2.752578 29.332853 3.23017
2003-02-26 08:02:39 51°16.13 2°54.167 -999 2.750053 29.303221 3.297589
2003-02-26 08:02:42 51°16.137 2°54.173 -999 2.754682 29.356742 3.23017
2003-02-26 08:02:48 51°16.149 2°54.187 -999 2.749422 29.294204 3.263879
2003-02-26 08:02:53 51°16.159 2°54.201 -999 2.749422 29.294204 3.263879
2003-02-26 08:02:59 51°16.17 2°54.219 -999 2.729013 29.055645 3.23017
2003-02-26 08:03:02 51°16.175 2°54.228 -999 2.760994 29.4268 3.263879
2003-02-26 08:03:08 51°16.184 2°54.248 -999 2.751736 29.306863 3.19646
2003-02-26 08:03:13 51°16.19 2°54.265 -999 2.752683 29.313942 3.23017
2003-02-26 08:03:18 51°16.196 2°54.283 -999 2.749842 29.279825 3.19646
2003-02-26 08:03:24 51°16.203 2°54.305 -999 2.749842 29.279825 3.19646
2003-02-26 08:03:28 51°16.207 2°54.32 -999 2.73017 29.050844 3.263879
2003-02-26 08:03:33 51°16.212 2°54.339 -999 2.747002 29.25134 3.263879
2003-02-26 08:03:38 51°16.216 2°54.358 -999 2.746686 29.251657 3.23017
2003-02-26 08:03:43 51°16.221 2°54.377 -999 2.742899 29.208849 3.19646
2003-02-26 08:03:48 51°16.225 2°54.397 -999 2.747844 29.272469 3.19646
2003-02-26 08:03:53 51°16.229 2°54.417 -999 2.747844 29.272469 3.19646
2003-02-26 08:03:58 51°16.233 2°54.436 -999 2.746476 29.259641 3.162751
2003-02-26 08:04:03 51°16.238 2°54.454 9.410661 2.747213 29.269891 3.162751
2003-02-26 08:04:08 51°16.244 2°54.47 9.513284 2.741532 29.206455 3.162751
2003-02-26 08:04:13 51°16.25 2°54.484 10.168509 2.74837 29.2883 3.19646
2003-02-26 08:04:17 51°16.255 2°54.493 9.868889 2.740269 29.191646 3.061623
2003-02-26 08:04:23 51°16.264 2°54.506 9.868889 2.740269 29.191646 3.061623
2003-02-26 08:04:28 51°16.271 2°54.515 9.24831 2.74574 29.253414 3.702101
2003-02-26 08:04:33 51°16.279 2°54.522 10.099329 2.745319 29.251693 3.331298
2003-02-26 08:04:37 51°16.285 2°54.526 9.63617 2.748896 29.299307 3.23017
2003-02-26 08:04:44 51°16.295 2°54.533 9.442837 2.751421 29.328947 3.331298
2003-02-26 08:04:48 51°16.301 2°54.536 9.018115 2.742794 29.228498 3.297589
2003-02-26 08:04:53 51°16.308 2°54.539 9.018115 2.742794 29.228498 3.297589
2003-02-26 08:04:58 51°16.315 2°54.54 8.705476 2.752999 29.345859 3.263879
2003-02-26 08:05:03 51°16.322 2°54.541 9.324371 2.75626 29.384959 3.23017
2003-02-26 08:05:08 51°16.328 2°54.541 9.288248 2.742899 29.226517 3.162751
2003-02-26 08:05:13 51°16.334 2°54.54 8.427462 2.738691 29.176344 3.162751
2003-02-26 08:05:18 51°16.34 2°54.539 8.311742 2.73017 29.077204 3.19646
2003-02-26 08:05:23 51°16.346 2°54.537 8.311742 2.73017 29.077204 3.19646
2003-02-26 08:05:28 51°16.351 2°54.534 8.586994 2.741216 29.206768 3.297589
2003-02-26 08:05:33 51°16.356 2°54.531 8.662447 2.747844 29.283737 3.162751
2003-02-26 08:05:38 51°16.36 2°54.527 8.542879 2.748054 29.287817 3.263879
2003-02-26 08:05:43 51°16.364 2°54.523 8.192149 2.747528 29.280838 3.19646
2003-02-26 08:05:48 51°16.368 2°54.519 8.112328 2.737534 29.163571 3.23017
2003-02-26 08:05:53 51°16.372 2°54.514 8.112328 2.737534 29.163571 3.23017
2003-02-26 08:05:58 51°16.374 2°54.51 9.090974 2.734168 29.122483 3.263879
2003-02-26 08:06:04 51°16.378 2°54.504 8.775915 2.754682 29.365622 3.23017
2003-02-26 08:06:08 51°16.379 2°54.5 8.543455 2.744162 29.242939 3.162751
2003-02-26 08:06:13 51°16.381 2°54.495 8.972721 2.748686 29.296032 3.19646
2003-02-26 08:06:17 51°16.382 2°54.491 8.580571 2.750369 29.314984 3.23017
2003-02-26 08:06:23 51°16.383 2°54.485 8.580571 2.750369 29.314984 3.23017
2003-02-26 08:06:28 51°16.383 2°54.48 8.108079 2.74069 29.202202 3.162751
2003-02-26 08:06:33 51°16.384 2°54.475 7.871447 2.738691 29.178751 3.129042
2003-02-26 08:06:38 51°16.384 2°54.471 8.541248 2.749106 29.301777 3.162751
2003-02-26 08:06:43 51°16.383 2°54.466 8.266764 2.754787 29.36928 3.095332
2003-02-26 08:06:48 51°16.383 2°54.462 8.072478 2.750158 29.314126 3.19646
2003-02-26 08:06:53 51°16.383 2°54.459 8.072478 2.750158 29.314126 3.19646
2003-02-26 08:06:56 51°16.383 2°54.457 8.779165 2.751316 29.328518 3.162751
2003-02-26 08:07:04 51°16.382 2°54.453 8.622887 2.757418 29.400165 3.095332
2003-02-26 08:07:08 51°16.382 2°54.451 8.626576 2.750264 29.316974 3.095332
2003-02-26 08:07:13 51°16.382 2°54.449 8.015001 2.740795 29.203437 3.129042
2003-02-26 08:07:17 51°16.382 2°54.447 8.350243 2.751 29.3232 3.162751
2003-02-26 08:07:24 51°16.381 2°54.444 8.350243 2.751 29.3232 3.162751
2003-02-26 08:07:28 51°16.38 2°54.442 7.797972 2.73785 29.168076 3.129042
2003-02-26 08:07:33 51°16.379 2°54.441 7.997249 2.726278 29.030767 3.095332
2003-02-26 08:07:38 51°16.378 2°54.44 8.391653 2.753735 29.352891 3.129042
2003-02-26 08:07:43 51°16.377 2°54.437 7.831446 2.761415 29.44307 2.994204
2003-02-26 08:07:49 51°16.375 2°54.435 7.797487 2.7611 29.439363 3.027913
2003-02-26 08:07:53 51°16.374 2°54.434 7.797487 2.7611 29.439363 3.027913
2003-02-26 08:07:56 51°16.374 2°54.432 7.635496 2.755313 29.371418 3.061623
2003-02-26 08:08:03 51°16.371 2°54.43 7.425768 2.752894 29.341397 2.926785
2003-02-26 08:08:09 51°16.37 2°54.429 8.549307 2.759311 29.415933 3.027913
2003-02-26 08:08:13 51°16.369 2°54.427 8.033666 2.757102 29.392417 2.994204
2003-02-26 08:08:16 51°16.368 2°54.426 8.034681 2.757417 29.396931 3.095332
2003-02-26 08:08:23 51°16.365 2°54.424 8.034681 2.757417 29.396931 3.095332
2003-02-26 08:08:28 51°16.364 2°54.423 8.363905 2.755524 29.374696 3.027913
2003-02-26 08:08:33 51°16.361 2°54.421 8.071028 2.760784 29.434847 3.027913
2003-02-26 08:08:38 51°16.359 2°54.42 8.464213 2.757417 29.395315 3.027913
2003-02-26 08:08:44 51°16.356 2°54.417 8.463108 2.759416 29.417168 3.162751
2003-02-26 08:08:48 51°16.354 2°54.417 8.263922 2.760468 29.430331 2.994204
2003-02-26 08:08:53 51°16.352 2°54.415 8.263922 2.760468 29.430331 2.994204
2003-02-26 08:08:58 51°16.349 2°54.413 7.86786 2.760784 29.434847 2.893076
2003-02-26 08:09:04 51°16.347 2°54.411 7.506739 2.750369 29.314984 2.994204
2003-02-26 08:09:08 51°16.344 2°54.41 8.435823 2.758259 29.40924 3.027913
2003-02-26 08:09:13 51°16.342 2°54.409 7.983413 2.758785 29.417845 2.960494
2003-02-26 08:09:16 51°16.34 2°54.408 8.179801 2.752052 29.337971 3.027913
2003-02-26 08:09:24 51°16.336 2°54.406 8.179801 2.752052 29.337971 3.027913
2003-02-26 08:09:28 51°16.334 2°54.404 8.376794 2.753104 29.347901 2.994204
2003-02-26 08:09:32 51°16.332 2°54.403 7.703763 2.747318 29.281589 2.926785
2003-02-26 08:09:38 51°16.329 2°54.401 8.09982 2.754261 29.365526 2.893076
2003-02-26 08:09:44 51°16.326 2°54.399 8.296721 2.756471 29.393087 2.926785
2003-02-26 08:09:48 51°16.325 2°54.397 9.240006 2.75079 29.329602 2.926785
2003-02-26 08:09:53 51°16.322 2°54.394 9.240006 2.75079 29.329602 2.926785
2003-02-26 08:09:58 51°16.32 2°54.392 8.576256 2.749001 29.308602 3.095332
2003-02-26 08:10:03 51°16.319 2°54.389 8.615174 2.749422 29.313543 2.994204
2003-02-26 08:10:08 51°16.317 2°54.387 8.968432 2.74595 29.272782 3.061623
2003-02-26 08:10:13 51°16.315 2°54.384 8.305147 2.741321 29.218447 3.061623
2003-02-26 08:10:18 51°16.313 2°54.381 8.029411 2.750684 29.32756 3.027913
2003-02-26 08:10:23 51°16.311 2°54.378 8.029411 2.750684 29.32756 3.027913
2003-02-26 08:10:28 51°16.31 2°54.376 8.03033 2.752473 29.348561 3.027913
2003-02-26 08:10:33 51°16.308 2°54.373 8.230672 2.758049 29.412431 3.061623
2003-02-26 08:10:38 51°16.307 2°54.369 6.993132 2.752473 29.344525 3.095332
2003-02-26 08:10:43 51°16.306 2°54.366 8.269028 2.749527 29.308328 3.095332
2003-02-26 08:10:48 51°16.305 2°54.363 8.504494 2.761415 29.448738 3.162751
2003-02-26 08:10:53 51°16.304 2°54.36 8.504494 2.761415 29.448738 3.162751
2003-02-26 08:10:59 51°16.303 2°54.357 7.633939 2.759522 29.424067 3.129042
2003-02-26 08:11:03 51°16.302 2°54.355 8.505118 2.753946 29.357783 3.162751
2003-02-26 08:11:08 51°16.301 2°54.352 8.268402 2.760153 29.429862 3.095332
2003-02-26 08:11:13 51°16.301 2°54.349 8.781077 2.762993 29.464845 3.19646
2003-02-26 08:11:18 51°16.3 2°54.346 8.072864 2.757733 29.403871 3.23017
2003-02-26 08:11:23 51°16.299 2°54.344 8.072864 2.757733 29.403871 3.23017
2003-02-26 08:11:28 51°16.299 2°54.341 8.469447 2.761731 29.449206 3.162751
2003-02-26 08:11:33 51°16.298 2°54.338 19.600491 2.762573 29.459092 3.095332
2003-02-26 08:11:38 51°16.298 2°54.335 3.477129 2.749001 29.301348 3.129042
2003-02-26 08:11:43 51°16.297 2°54.333 3.478532 2.761731 29.450016 3.027913
2003-02-26 08:11:48 51°16.297 2°54.33 3.478896 2.757944 29.404725 3.061623
2003-02-26 08:11:53 51°16.296 2°54.327 3.478896 2.757944 29.404725 3.061623
2003-02-26 08:11:58 51°16.296 2°54.325 3.477805 2.755208 29.371798 3.095332
2003-02-26 08:12:03 51°16.296 2°54.322 3.476298 2.749632 29.305534 3.129042
2003-02-26 08:12:09 51°16.295 2°54.319 3.475051 2.759522 29.420831 3.129042
2003-02-26 08:12:13 51°16.295 2°54.317 3.475415 2.761731 29.447586 3.129042
2003-02-26 08:12:18 51°16.294 2°54.315 3.474999 2.750369 29.314178 3.027913
2003-02-26 08:12:23 51°16.294 2°54.313 3.474999 2.750369 29.314178 3.027913
2003-02-26 08:12:28 51°16.293 2°54.311 3.472245 2.747002 29.27547 3.162751
2003-02-26 08:12:33 51°16.293 2°54.308 3.472245 2.755945 29.380445 3.095332
2003-02-26 08:12:38 51°16.292 2°54.306 3.472037 2.755208 29.37099 3.095332
2003-02-26 08:12:43 51°16.292 2°54.304 3.471205 2.754261 29.361488 3.129042
2003-02-26 08:12:48 51°16.291 2°54.302 3.471673 2.762257 29.456194 3.129042
2003-02-26 08:12:53 51°16.291 2°54.3 3.471673 2.762257 29.456194 3.129042
2003-02-26 08:12:59 51°16.29 2°54.298 3.471881 2.757312 29.399738 3.095332
2003-02-26 08:13:03 51°16.29 2°54.297 3.473336 2.749106 29.304194 3.061623
2003-02-26 08:13:09 51°16.289 2°54.294 3.470478 2.757418 29.402591 3.027913
2003-02-26 08:13:13 51°16.288 2°54.293 3.476038 2.752999 29.350702 3.027913
2003-02-26 08:13:17 51°16.288 2°54.291 3.478221 2.756155 29.386148 3.095332
2003-02-26 08:13:24 51°16.287 2°54.289 3.478221 2.756155 29.386148 3.095332
2003-02-26 08:13:28 51°16.287 2°54.288 3.476714 2.750895 29.325191 2.926785
2003-02-26 08:13:33 51°16.286 2°54.286 3.477961 2.75868 29.416609 2.926785
2003-02-26 08:13:38 51°16.285 2°54.285 3.478273 2.757102 29.397267 2.994204
2003-02-26 08:13:43 51°16.284 2°54.284 3.480039 2.75626 29.385767 2.994204
2003-02-26 08:13:48 51°16.284 2°54.283 3.483209 2.754893 29.3689 2.994204
2003-02-26 08:13:53 51°16.283 2°54.282 3.483209 2.754893 29.3689 2.994204
2003-02-26 08:13:58 51°16.282 2°54.281 3.48243 2.757628 29.401827 2.960494
2003-02-26 08:14:04 51°16.281 2°54.279 3.484196 2.748054 29.287012 3.129042
2003-02-26 08:14:08 51°16.281 2°54.279 3.485807 2.750369 29.314984 3.027913
2003-02-26 08:14:13 51°16.28 2°54.278 3.48721 2.757628 29.398593 2.994204
2003-02-26 08:14:19 51°16.279 2°54.277 3.487106 2.743005 29.225341 2.994204
2003-02-26 08:14:23 51°16.279 2°54.276 3.487106 2.743005 29.225341 2.994204
2003-02-26 08:14:28 51°16.278 2°54.275 3.488353 2.749422 29.299841 2.960494
2003-02-26 08:14:33 51°16.277 2°54.274 3.485599 2.763099 29.45879 2.926785
2003-02-26 08:14:38 51°16.276 2°54.273 3.485703 2.754577 29.357121 2.926785
2003-02-26 08:14:42 51°16.275 2°54.272 3.487158 2.745845 29.255453 2.893076
2003-02-26 08:14:48 51°16.275 2°54.272 3.485443 2.763414 29.460067 2.893076
2003-02-26 08:14:53 51°16.274 2°54.271 3.485443 2.763414 29.460067 2.893076
2003-02-26 08:14:57 51°16.273 2°54.271 3.485859 2.751316 29.317231 2.994204
2003-02-26 08:15:03 51°16.272 2°54.27 3.486898 2.749948 29.301987 2.926785
2003-02-26 08:15:08 51°16.272 2°54.27 3.488405 2.757943 29.395833 2.994204
2003-02-26 08:15:13 51°16.271 2°54.269 3.488612 2.762257 29.445668 2.926785
2003-02-26 08:15:17 51°16.27 2°54.269 3.486638 2.752052 29.326679 2.960494
2003-02-26 08:15:23 51°16.269 2°54.269 3.486638 2.752052 29.326679 2.960494
2003-02-26 08:15:28 51°16.268 2°54.268 3.486742 2.761731 29.439491 2.893076
2003-02-26 08:15:33 51°16.267 2°54.268 3.48882 2.755629 29.368663 3.027913
2003-02-26 08:15:37 51°16.267 2°54.268 3.489703 2.756576 29.378163 2.960494
2003-02-26 08:15:44 51°16.267 2°54.268 3.48882 2.764887 29.476553 2.893076
2003-02-26 08:15:48 51°16.266 2°54.268 3.488509 2.74311 29.221755 2.926785
2003-02-26 08:15:53 51°16.266 2°54.268 3.488509 2.74311 29.221755 2.926785
2003-02-26 08:15:58 51°16.265 2°54.268 3.490327 2.759627 29.414787 2.994204
2003-02-26 08:16:03 51°16.264 2°54.268 3.492561 2.758049 29.397068 2.926785
2003-02-26 08:16:08 51°16.263 2°54.268 3.492717 2.754051 29.349333 2.859366
2003-02-26 08:16:13 51°16.263 2°54.268 3.49308 2.765097 29.478214 3.095332
2003-02-26 08:16:19 51°16.262 2°54.268 3.48908 2.762888 29.451461 2.994204
2003-02-26 08:16:23 51°16.261 2°54.268 3.48908 2.762888 29.451461 2.994204
2003-02-26 08:16:28 51°16.26 2°54.269 3.489496 2.754998 29.358025 2.960494
2003-02-26 08:16:33 51°16.259 2°54.269 3.618414 2.765413 29.48111 2.926785
2003-02-26 08:16:37 51°16.259 2°54.269 3.492561 2.758154 29.394263 3.061623
2003-02-26 08:16:44 51°16.257 2°54.27 3.494639 2.746581 29.259267 2.994204
2003-02-26 08:16:48 51°16.257 2°54.27 3.49334 2.762572 29.446136 2.926785
2003-02-26 08:16:53 51°16.256 2°54.27 3.49334 2.762572 29.446136 2.926785
2003-02-26 08:16:58 51°16.255 2°54.27 3.494119 2.765097 29.476593 2.994204
2003-02-26 08:17:03 51°16.254 2°54.271 3.494795 2.760679 29.423903 3.027913
2003-02-26 08:17:09 51°16.253 2°54.271 3.496041 2.760889 29.426373 3.027913
2003-02-26 08:17:13 51°16.252 2°54.272 3.49708 2.756891 29.37783 2.960494
2003-02-26 08:17:19 51°16.252 2°54.272 3.494275 2.75889 29.401292 3.061623
2003-02-26 08:17:23 51°16.251 2°54.273 3.494275 2.75889 29.401292 3.061623
2003-02-26 08:17:28 51°16.25 2°54.273 3.495626 2.741426 29.195589 2.994204
2003-02-26 08:17:33 51°16.249 2°54.274 3.493548 2.762783 29.446988 3.095332
2003-02-26 08:17:37 51°16.249 2°54.274 3.496509 2.76152 29.430548 3.061623
2003-02-26 08:17:43 51°16.248 2°54.275 3.495158 2.762152 29.437959 2.960494
2003-02-26 08:17:48 51°16.247 2°54.275 3.495158 2.765518 29.478294 2.994204
2003-02-26 08:17:53 51°16.246 2°54.276 3.495158 2.765518 29.478294 2.994204
2003-02-26 08:17:58 51°16.245 2°54.276 3.492821 2.756681 29.373745 3.061623
2003-02-26 08:18:04 51°16.245 2°54.277 3.492561 2.75868 29.398014 2.926785
2003-02-26 08:18:08 51°16.244 2°54.278 3.495158 2.758995 29.40091 2.994204
2003-02-26 08:18:13 51°16.243 2°54.278 3.496405 2.758364 29.393501 3.027913
2003-02-26 08:18:19 51°16.242 2°54.279 3.496041 2.764361 29.463896 3.061623
2003-02-26 08:18:23 51°16.242 2°54.28 3.496041 2.764361 29.463896 3.061623
2003-02-26 08:18:28 51°16.241 2°54.281 3.492821 2.766676 29.493504 2.926785
2003-02-26 08:18:33 51°16.241 2°54.281 3.493704 2.75363 29.338749 3.061623
2003-02-26 08:18:37 51°16.24 2°54.282 3.493912 2.75868 29.398014 3.027913
2003-02-26 08:18:43 51°16.239 2°54.283 3.493444 2.762257 29.438385 3.027913
2003-02-26 08:18:48 51°16.238 2°54.284 3.49386 2.75626 29.370421 3.027913
2003-02-26 08:18:53 51°16.238 2°54.284 3.49386 2.75626 29.370421 3.027913
2003-02-26 08:18:57 51°16.237 2°54.285 3.496301 2.764151 29.463855 3.027913
2003-02-26 08:19:03 51°16.236 2°54.286 3.495886 2.762467 29.443282 2.994204
2003-02-26 08:19:08 51°16.235 2°54.287 3.494847 2.762257 29.440003 3.061623
2003-02-26 08:19:13 51°16.234 2°54.288 3.494743 2.761731 29.434636 3.162751
2003-02-26 08:19:17 51°16.234 2°54.288 3.49734 2.760048 29.415684 3.162751
2003-02-26 08:19:24 51°16.233 2°54.29 3.49734 2.760048 29.415684 3.162751
2003-02-26 08:19:28 51°16.232 2°54.291 3.496197 2.757102 29.380299 2.994204
2003-02-26 08:19:33 51°16.231 2°54.291 3.495834 2.754261 29.346156 3.061623
2003-02-26 08:19:37 51°16.23 2°54.292 3.497236 2.766991 29.495588 2.994204
2003-02-26 08:19:43 51°16.23 2°54.293 3.497288 2.762888 29.447413 3.095332
2003-02-26 08:19:48 51°16.229 2°54.294 3.497756 2.761205 29.426035 2.994204
2003-02-26 08:19:53 51°16.228 2°54.295 3.497756 2.761205 29.426035 2.994204
2003-02-26 08:19:57 51°16.228 2°54.296 3.497236 2.760889 29.42233 3.027913
2003-02-26 08:20:04 51°16.227 2°54.298 3.498535 2.763414 29.45197 3.061623
2003-02-26 08:20:08 51°16.226 2°54.298 3.497756 2.756576 29.372511 2.994204
2003-02-26 08:20:13 51°16.225 2°54.299 3.495626 2.758469 29.394736 3.027913
2003-02-26 08:20:18 51°16.225 2°54.3 3.496509 2.759627 29.408319 3.061623
2003-02-26 08:20:23 51°16.224 2°54.302 3.496509 2.759627 29.408319 3.061623
2003-02-26 08:20:29 51°16.223 2°54.303 3.49521 2.763309 29.450735 3.027913
2003-02-26 08:20:33 51°16.222 2°54.304 3.495782 2.765729 29.478334 3.095332
2003-02-26 08:20:37 51°16.222 2°54.305 3.49521 2.763519 29.452396 3.027913
2003-02-26 08:20:43 51°16.221 2°54.306 3.495158 2.76152 29.430548 3.095332
2003-02-26 08:20:48 51°16.22 2°54.307 3.494587 2.758575 29.395971 3.027913
2003-02-26 08:20:53 51°16.219 2°54.308 3.494587 2.758575 29.395971 3.027913
2003-02-26 08:20:59 51°16.218 2°54.31 3.496821 2.763309 29.452354 2.926785
2003-02-26 08:21:04 51°16.218 2°54.311 3.497704 2.765413 29.476248 2.926785
2003-02-26 08:21:08 51°16.217 2°54.312 3.496509 2.760258 29.416537 3.061623
2003-02-26 08:21:13 51°16.216 2°54.313 3.498535 2.761626 29.433401 3.19646
2003-02-26 08:21:18 51°16.215 2°54.314 3.496249 2.766149 29.484895 3.061623
2003-02-26 08:21:23 51°16.215 2°54.315 3.496249 2.766149 29.484895 3.061623
2003-02-26 08:21:28 51°16.214 2°54.317 3.495989 2.758364 29.392694 3.061623
2003-02-26 08:21:33 51°16.213 2°54.318 3.49547 2.766255 29.48451 3.162751
2003-02-26 08:21:38 51°16.212 2°54.32 3.494119 2.75647 29.368855 3.061623
2003-02-26 08:21:44 51°16.212 2°54.321 3.493496 2.757733 29.385285 3.061623
2003-02-26 08:21:48 51°16.211 2°54.322 3.495054 2.767202 29.497249 3.027913
2003-02-26 08:21:53 51°16.211 2°54.323 3.495054 2.767202 29.497249 3.027913
2003-02-26 08:21:57 51°16.21 2°54.324 3.495834 2.757523 29.383623 3.129042
2003-02-26 08:22:03 51°16.209 2°54.326 3.496457 2.766886 29.493542 3.095332
2003-02-26 08:22:08 51°16.209 2°54.327 3.496197 2.758785 29.399249 3.129042
2003-02-26 08:22:13 51°16.208 2°54.329 3.496249 2.767517 29.503387 3.095332
2003-02-26 08:22:18 51°16.207 2°54.33 3.495574 2.758049 29.391413 3.19646
2003-02-26 08:22:24 51°16.206 2°54.332 3.495574 2.758049 29.391413 3.19646
2003-02-26 08:22:28 51°16.206 2°54.333 3.496717 2.744898 29.23711 3.162751
2003-02-26 08:22:33 51°16.204 2°54.334 3.494587 2.75868 29.397206 3.129042
2003-02-26 08:22:37 51°16.202 2°54.335 3.499002 2.761731 29.433018 3.095332
2003-02-26 08:22:43 51°16.199 2°54.337 3.498743 2.769095 29.519486 3.061623
2003-02-26 08:22:48 51°16.195 2°54.338 3.49734 2.754998 29.354798 3.061623
2003-02-26 08:22:53 51°16.191 2°54.34 3.49734 2.754998 29.354798 3.061623
2003-02-26 08:22:57 51°16.187 2°54.341 3.491782 2.768254 29.509603 3.129042
2003-02-26 08:23:04 51°16.18 2°54.342 3.485027 2.759627 29.406703 3.129042
2003-02-26 08:23:08 51°16.175 2°54.343 3.48139 2.763414 29.451161 3.162751
2003-02-26 08:23:13 51°16.169 2°54.344 3.479728 2.766149 29.484895 3.095332
2003-02-26 08:23:18 51°16.162 2°54.344 3.478688 2.76636 29.488987 3.095332
2003-02-26 08:23:23 51°16.155 2°54.343 3.478688 2.76636 29.488987 3.095332
2003-02-26 08:23:28 51°16.148 2°54.341 3.477909 2.763519 29.458872 3.095332
2003-02-26 08:23:33 51°16.141 2°54.338 3.478169 2.762362 29.448522 3.095332
2003-02-26 08:23:37 51°16.135 2°54.336 3.479104 2.765624 29.490066 3.19646
2003-02-26 08:23:43 51°16.126 2°54.33 3.480091 2.754261 29.358259 3.263879
2003-02-26 08:23:49 51°16.117 2°54.323 3.483053 2.75626 29.382535 3.23017
2003-02-26 08:23:53 51°16.111 2°54.316 3.483053 2.75626 29.382535 3.23017
2003-02-26 08:23:58 51°16.104 2°54.308 3.484508 2.759101 29.41508 3.331298
2003-02-26 08:24:03 51°16.097 2°54.298 3.488768 2.759837 29.424537 3.263879
2003-02-26 08:24:08 51°16.09 2°54.287 3.490119 2.762783 29.458323 3.297589
2003-02-26 08:24:13 51°16.085 2°54.274 3.494327 2.766781 29.503659 3.365007
2003-02-26 08:24:18 51°16.08 2°54.261 3.496821 2.754367 29.356266 3.365007
2003-02-26 08:24:23 51°16.076 2°54.246 3.496821 2.754367 29.356266 3.365007
2003-02-26 08:24:29 51°16.072 2°54.227 3.496717 2.758785 29.405714 3.331298
2003-02-26 08:24:33 51°16.07 2°54.214 3.496457 2.758259 29.399539 3.23017
2003-02-26 08:24:37 51°16.068 2°54.199 3.494899 2.764256 29.4659 3.331298
2003-02-26 08:24:44 51°16.066 2°54.173 3.494327 2.762152 29.440386 3.331298
2003-02-26 08:24:48 51°16.066 2°54.158 3.494067 2.766149 29.484085 3.331298
2003-02-26 08:24:53 51°16.066 2°54.137 3.494067 2.766149 29.484085 3.331298
2003-02-26 08:24:57 51°16.067 2°54.121 3.495886 2.770253 29.531454 3.331298
2003-02-26 08:25:03 51°16.068 2°54.095 3.494795 2.77141 29.543421 3.331298
2003-02-26 08:25:08 51°16.069 2°54.073 3.495418 2.769095 29.517864 3.365007
2003-02-26 08:25:13 51°16.069 2°54.051 3.497236 2.770989 29.541726 3.331298
2003-02-26 08:25:18 51°16.07 2°54.027 3.495782 2.768254 29.509603 3.331298
2003-02-26 08:25:23 51°16.07 2°54.003 3.495782 2.768254 29.509603 3.331298
2003-02-26 08:25:28 51°16.071 2°53.977 3.495626 2.764151 29.462235 3.466136
2003-02-26 08:25:32 51°16.073 2°53.956 3.496405 2.751947 29.318997 3.297589
2003-02-26 08:25:39 51°16.078 2°53.918 3.495158 2.768885 29.517015 3.297589
2003-02-26 08:25:44 51°16.083 2°53.892 3.498223 2.763519 29.454824 3.365007
2003-02-26 08:25:48 51°16.088 2°53.87 3.498171 2.763625 29.45525 3.331298
2003-02-26 08:25:53 51°16.095 2°53.843 3.498171 2.763625 29.45525 3.331298
2003-02-26 08:25:58 51°16.102 2°53.816 3.49947 2.758049 29.388989 3.365007
2003-02-26 08:26:03 51°16.11 2°53.79 3.502275 2.755208 29.35404 3.365007
2003-02-26 08:26:08 51°16.119 2°53.764 3.503625 2.772778 29.559483 3.398717
2003-02-26 08:26:13 51°16.128 2°53.738 3.505963 2.77162 29.54508 3.331298
2003-02-26 08:26:18 51°16.137 2°53.712 3.508404 2.764045 29.456143 3.398717
2003-02-26 08:26:23 51°16.148 2°53.688 3.508404 2.764045 29.456143 3.398717
2003-02-26 08:26:29 51°16.162 2°53.659 3.507521 2.759837 29.403516 3.331298
2003-02-26 08:26:33 51°16.171 2°53.64 3.510689 2.772567 29.553763 3.297589
2003-02-26 08:26:39 51°16.186 2°53.612 3.510949 2.775197 29.583026 3.263879
2003-02-26 08:26:44 51°16.198 2°53.589 3.508871 2.773619 29.562057 3.23017
2003-02-26 08:26:48 51°16.209 2°53.57 3.510014 2.778459 29.618076 3.23017
2003-02-26 08:26:53 51°16.222 2°53.548 3.510014 2.778459 29.618076 3.23017
2003-02-26 08:26:58 51°16.236 2°53.528 3.512611 2.775408 29.580621 3.263879
2003-02-26 08:27:03 51°16.251 2°53.508 3.512195 2.768674 29.500761 3.23017
2003-02-26 08:27:08 51°16.266 2°53.487 3.510949 2.769516 29.511451 3.23017
2003-02-26 08:27:12 51°16.278 2°53.472 3.511728 2.779721 29.631276 3.19646
2003-02-26 08:27:19 51°16.3 2°53.445 3.518167 2.780247 29.63664 3.263879
2003-02-26 08:27:24 51°16.315 2°53.426 3.518167 2.780247 29.63664 3.263879
2003-02-26 08:27:28 51°16.328 2°53.412 3.518842 2.778354 29.613586 3.095332
2003-02-26 08:27:33 51°16.344 2°53.393 3.520868 2.779195 29.622656 3.23017
2003-02-26 08:27:38 51°16.36 2°53.375 3.519881 2.775197 29.5749 3.162751
2003-02-26 08:27:43 51°16.376 2°53.356 3.518946 2.773514 29.555138 3.095332
2003-02-26 08:27:48 51°16.392 2°53.338 3.520296 2.775092 29.571228 3.19646
2003-02-26 08:27:53 51°16.408 2°53.32 3.520296 2.775092 29.571228 3.19646
2003-02-26 08:27:59 51°16.427 2°53.298 3.519725 2.778564 29.611177 2.994204
2003-02-26 08:28:04 51°16.443 2°53.28 3.518739 2.778038 29.603374 2.994204
2003-02-26 08:28:08 51°16.456 2°53.267 3.519621 2.777512 29.596386 3.129042
2003-02-26 08:28:13 51°16.472 2°53.249 3.520193 2.769937 29.507475 3.061623
2003-02-26 08:28:19 51°16.492 2°53.227 3.516454 2.765623 29.456861 3.027913
2003-02-26 08:28:23 51°16.505 2°53.213 3.516454 2.765623 29.456861 3.027913
2003-02-26 08:28:28 51°16.521 2°53.195 3.516713 2.782667 29.656915 3.027913
2003-02-26 08:28:33 51°16.537 2°53.177 3.516713 2.78172 29.64661 2.960494
2003-02-26 08:28:37 51°16.55 2°53.162 3.514688 2.782351 29.654023 2.994204
2003-02-26 08:28:44 51°16.572 2°53.137 3.512663 2.782246 29.653602 2.994204
2003-02-26 08:28:48 51°16.586 2°53.124 3.512351 2.778564 29.611177 2.926785
2003-02-26 08:28:53 51°16.602 2°53.106 3.512351 2.778564 29.611177 2.926785
2003-02-26 08:28:58 51°16.619 2°53.089 3.513442 2.771936 29.534178 2.960494
2003-02-26 08:29:03 51°16.635 2°53.072 3.518427 2.783614 29.671293 2.893076
2003-02-26 08:29:08 51°16.652 2°53.056 3.514273 2.786876 29.71205 2.825657
2003-02-26 08:29:13 51°16.669 2°53.039 3.515 2.782983 29.665509 2.825657
2003-02-26 08:29:18 51°16.685 2°53.022 3.51474 2.783088 29.666745 2.859366
2003-02-26 08:29:23 51°16.702 2°53.006 3.51474 2.783088 29.666745 2.859366
2003-02-26 08:29:29 51°16.722 2°52.986 3.513961 2.782457 29.658516 2.859366
2003-02-26 08:29:33 51°16.735 2°52.972 3.513545 2.782562 29.659752 2.724529
2003-02-26 08:29:37 51°16.749 2°52.959 3.51339 2.785192 29.690644 2.859366
2003-02-26 08:29:44 51°16.772 2°52.936 3.513753 2.77909 29.61898 2.859366
2003-02-26 08:29:48 51°16.785 2°52.922 3.513234 2.778985 29.618558 2.825657
2003-02-26 08:29:53 51°16.802 2°52.906 3.513234 2.778985 29.618558 2.825657
2003-02-26 08:29:58 51°16.818 2°52.889 3.51287 2.784771 29.688147 2.825657
2003-02-26 08:30:04 51°16.838 2°52.869 3.511416 2.78393 29.678261 2.690819
2003-02-26 08:30:08 51°16.851 2°52.856 3.511572 2.787717 29.722754 2.791947
2003-02-26 08:30:13 51°16.868 2°52.84 3.509702 2.790874 29.759839 2.758238
2003-02-26 08:30:18 51°16.884 2°52.823 3.511572 2.782457 29.661775 2.724529
2003-02-26 08:30:24 51°16.904 2°52.803 3.511572 2.782457 29.661775 2.724529
2003-02-26 08:30:28 51°16.917 2°52.79 3.511728 2.782352 29.659724 2.690819
2003-02-26 08:30:33 51°16.933 2°52.773 3.519206 2.790032 29.750766 2.65711
2003-02-26 08:30:37 51°16.947 2°52.759 3.527826 2.787086 29.716971 2.65711
2003-02-26 08:30:43 51°16.967 2°52.739 3.531304 2.791505 29.767256 2.65711
2003-02-26 08:30:48 51°16.983 2°52.722 3.531252 2.785613 29.69885 2.65711
2003-02-26 08:30:52 51°16.996 2°52.708 3.531252 2.785613 29.69885 2.65711
2003-02-26 08:30:57 51°17.013 2°52.691 3.535977 2.794241 29.798584 2.758238
2003-02-26 08:31:04 51°17.036 2°52.668 3.538209 2.796976 29.826637 2.960494
2003-02-26 08:31:08 51°17.05 2°52.655 3.535769 2.7914 29.757029 2.758238
2003-02-26 08:31:13 51°17.067 2°52.638 3.535509 2.799501 29.848116 2.758238
2003-02-26 08:31:19 51°17.087 2°52.618 3.534835 2.791084 29.746786 2.791947
2003-02-26 08:31:23 51°17.1 2°52.604 3.534835 2.791084 29.746786 2.791947
2003-02-26 08:31:28 51°17.117 2°52.587 3.532498 2.789085 29.722495 2.825657
2003-02-26 08:31:33 51°17.133 2°52.571 3.532498 2.800132 29.849796 2.825657
2003-02-26 08:31:38 51°17.15 2°52.554 3.531304 2.800974 29.858046 2.791947
2003-02-26 08:31:44 51°17.17 2°52.533 3.540856 2.801605 29.867102 2.791947
2003-02-26 08:31:49 51°17.186 2°52.516 3.537274 2.790768 29.739813 2.791947
2003-02-26 08:31:53 51°17.199 2°52.502 3.537274 2.790768 29.739813 2.791947
2003-02-26 08:31:58 51°17.216 2°52.485 3.537586 2.795713 29.798706 2.690819
2003-02-26 08:32:04 51°17.236 2°52.464 3.545217 2.801395 29.866269 2.791947
2003-02-26 08:32:08 51°17.249 2°52.45 3.553573 2.796345 29.806121 2.690819
2003-02-26 08:32:13 51°17.265 2°52.433 3.57765 2.791715 29.750933 2.724529
2003-02-26 08:32:19 51°17.285 2°52.412 3.590411 2.79666 29.805737 2.758238
2003-02-26 08:32:24 51°17.302 2°52.395 3.590411 2.79666 29.805737 2.758238
2003-02-26 08:32:28 51°17.315 2°52.381 3.61437 2.800553 29.850643 2.758238
2003-02-26 08:32:33 51°17.331 2°52.364 3.642933 2.787507 29.693366 2.690819
2003-02-26 08:32:38 51°17.348 2°52.347 3.67345 2.809812 29.945458 2.791947
2003-02-26 08:32:43 51°17.365 2°52.329 3.70183 2.812337 29.962793 3.027913
2003-02-26 08:32:48 51°17.381 2°52.312 3.72409 2.819387 30.029123 3.129042
2003-02-26 08:32:53 51°17.397 2°52.294 3.72409 2.819387 30.029123 3.129042
2003-02-26 08:32:58 51°17.414 2°52.277 3.750481 2.827699 30.109409 3.19646
2003-02-26 08:33:03 51°17.431 2°52.26 3.771896 2.834328 30.164931 3.331298
2003-02-26 08:33:09 51°17.451 2°52.24 3.783428 2.841272 30.219142 3.432426
2003-02-26 08:33:13 51°17.464 2°52.227 3.791546 2.843271 30.22028 3.432426
2003-02-26 08:33:18 51°17.481 2°52.21 3.798887 2.860633 30.398937 3.634683
2003-02-26 08:33:23 51°17.499 2°52.195 3.798887 2.860633 30.398937 3.634683
2003-02-26 08:33:28 51°17.516 2°52.18 3.80173 2.862317 30.397097 3.735811
2003-02-26 08:33:33 51°17.534 2°52.166 3.802454 2.865263 30.413359 3.76952
2003-02-26 08:33:37 51°17.547 2°52.154 3.804883 2.869788 30.453058 3.836939
2003-02-26 08:33:44 51°17.572 2°52.134 3.803281 2.866736 30.405742 3.904358
2003-02-26 08:33:48 51°17.586 2°52.122 3.805038 2.876312 30.511149 3.870648
2003-02-26 08:33:53 51°17.604 2°52.108 3.805038 2.876312 30.511149 3.870648
2003-02-26 08:33:59 51°17.626 2°52.092 3.804625 2.875365 30.496744 3.80323
2003-02-26 08:34:03 51°17.64 2°52.08 3.809225 2.887677 30.636671 3.80323
2003-02-26 08:34:09 51°17.661 2°52.064 3.811086 2.881468 30.562341 3.836939
2003-02-26 08:34:13 51°17.676 2°52.052 3.814032 2.879574 30.537683 3.76952
2003-02-26 08:34:19 51°17.697 2°52.035 3.816513 2.876838 30.505676 3.76952
2003-02-26 08:34:24 51°17.715 2°52.021 3.816513 2.876838 30.505676 3.76952
2003-02-26 08:34:28 51°17.729 2°52.01 3.819613 2.883783 30.584437 3.80323
2003-02-26 08:34:33 51°17.747 2°51.996 3.823231 2.866946 30.385858 3.76952
2003-02-26 08:34:39 51°17.768 2°51.978 3.830362 2.881468 30.554855 3.735811
2003-02-26 08:34:43 51°17.782 2°51.967 3.836407 2.886835 30.615148 3.634683
2003-02-26 08:34:48 51°17.8 2°51.953 3.841728 2.88452 30.5839 3.76952
2003-02-26 08:34:52 51°17.814 2°51.941 3.841728 2.88452 30.5839 3.76952
2003-02-26 08:34:58 51°17.836 2°51.924 3.846945 2.882836 30.562541 3.668392
2003-02-26 08:35:04 51°17.857 2°51.907 3.852679 2.890413 30.647008 3.600973
2003-02-26 08:35:08 51°17.871 2°51.896 3.854022 2.895148 30.695735 3.702101
2003-02-26 08:35:13 51°17.889 2°51.882 3.853763 2.894306 30.681714 3.668392
2003-02-26 08:35:18 51°17.907 2°51.867 3.849011 2.895885 30.696839 3.668392
2003-02-26 08:35:23 51°17.925 2°51.853 3.849011 2.895885 30.696839 3.668392
2003-02-26 08:35:28 51°17.942 2°51.839 3.847358 2.875469 30.451546 3.80323
2003-02-26 08:35:32 51°17.957 2°51.828 3.842554 2.897674 30.70107 3.836939
2003-02-26 08:35:39 51°17.981 2°51.808 3.832583 2.887255 30.570991 3.735811
2003-02-26 08:35:44 51°17.999 2°51.794 3.824574 2.903672 30.757836 3.668392
2003-02-26 08:35:48 51°18.013 2°51.783 3.813928 2.903672 30.751154 3.600973
2003-02-26 08:35:53 51°18.031 2°51.769 3.813928 2.903672 30.751154 3.600973
2003-02-26 08:35:58 51°18.049 2°51.755 3.807209 2.904198 30.747283 3.466136
2003-02-26 08:36:04 51°18.071 2°51.738 3.800748 2.902935 30.738371 3.365007
2003-02-26 08:36:08 51°18.085 2°51.727 3.789271 2.900199 30.731435 3.297589
2003-02-26 08:36:13 51°18.103 2°51.713 3.7841 2.897569 30.722382 3.23017
2003-02-26 08:36:19 51°18.125 2°51.698 3.783376 2.894833 30.702898 3.162751
2003-02-26 08:36:23 51°18.14 2°51.688 3.783376 2.894833 30.702898 3.162751
2003-02-26 08:36:29 51°18.162 2°51.674 3.782342 2.893254 30.693612 3.162751
2003-02-26 08:36:33 51°18.177 2°51.665 3.785341 2.891044 30.676094 3.095332
2003-02-26 08:36:39 51°18.2 2°51.653 3.782963 2.889361 30.663895 3.061623
2003-02-26 08:36:44 51°18.218 2°51.641 3.788547 2.888203 30.656185 3.027913
2003-02-26 08:36:48 51°18.233 2°51.632 3.788082 2.887677 30.651693 3.061623
2003-02-26 08:36:53 51°18.251 2°51.62 3.788082 2.887677 30.651693 3.061623
2003-02-26 08:36:58 51°18.27 2°51.609 3.796095 2.887677 30.651693 3.095332
2003-02-26 08:37:03 51°18.289 2°51.597 3.800644 2.887782 30.65376 2.994204
2003-02-26 08:37:08 51°18.307 2°51.585 3.802764 2.888203 30.65869 3.027913
2003-02-26 08:37:13 51°18.326 2°51.573 3.796147 2.888098 30.655787 3.061623
2003-02-26 08:37:19 51°18.348 2°51.559 3.812068 2.888834 30.662744 2.960494
2003-02-26 08:37:23 51°18.362 2°51.551 3.812068 2.888834 30.662744 2.960494
2003-02-26 08:37:28 51°18.38 2°51.541 3.823489 2.890202 30.674589 3.061623
2003-02-26 08:37:33 51°18.397 2°51.531 3.820078 2.89136 30.683967 2.893076
2003-02-26 08:37:38 51°18.414 2°51.521 3.817339 2.891255 30.681064 2.859366
2003-02-26 08:37:43 51°18.431 2°51.511 3.813618 2.891886 30.68595 2.825657
2003-02-26 08:37:49 51°18.45 2°51.497 3.812275 2.894412 30.707162 2.791947
2003-02-26 08:37:53 51°18.462 2°51.486 3.812275 2.894412 30.707162 2.791947
2003-02-26 08:37:58 51°18.476 2°51.471 3.810259 2.896095 30.721857 2.589691
2003-02-26 08:38:03 51°18.489 2°51.455 3.806744 2.89578 30.717325 2.6234
2003-02-26 08:38:08 51°18.5 2°51.437 3.804521 2.895569 30.716534 2.555982
2003-02-26 08:38:13 51°18.509 2°51.42 3.80235 2.895148 30.71495 2.488563
2003-02-26 08:38:18 51°18.516 2°51.402 3.801988 2.894412 30.707998 2.488563
2003-02-26 08:38:24 51°18.522 2°51.381 3.801988 2.894412 30.707998 2.488563
2003-02-26 08:38:28 51°18.525 2°51.367 3.807416 2.89378 30.703949 2.454853
2003-02-26 08:38:33 51°18.527 2°51.35 3.810104 2.893044 30.697832 2.421144
2003-02-26 08:38:38 51°18.527 2°51.335 3.814497 2.892412 30.692111 2.387435
2003-02-26 08:38:44 51°18.525 2°51.318 3.817133 2.891991 30.689689 2.421144
2003-02-26 08:38:48 51°18.523 2°51.308 3.811448 2.89136 30.68146 2.387435
2003-02-26 08:38:53 51°18.519 2°51.296 3.811448 2.89136 30.68146 2.387435
2003-02-26 08:38:58 51°18.516 2°51.285 3.811086 2.891465 30.680186 2.320016
2003-02-26 08:39:02 51°18.513 2°51.276 3.803643 2.891149 30.673985 2.320016
2003-02-26 08:39:08 51°18.509 2°51.262 3.79656 2.891255 30.671877 2.353725
2003-02-26 08:39:13 51°18.506 2°51.25 3.790305 2.890834 30.667785 2.421144
2003-02-26 08:39:19 51°18.504 2°51.237 3.784307 2.889571 30.65217 2.454853
2003-02-26 08:39:24 51°18.503 2°51.226 3.784307 2.889571 30.65217 2.454853
2003-02-26 08:39:28 51°18.502 2°51.217 3.781411 2.890308 30.661626 2.421144
2003-02-26 08:39:32 51°18.502 2°51.209 3.777067 2.889571 30.658846 2.353725
2003-02-26 08:39:38 51°18.501 2°51.196 3.771689 2.88894 30.653123 2.353725
2003-02-26 08:39:44 51°18.501 2°51.184 3.768638 2.888308 30.651573 2.454853
2003-02-26 08:39:48 51°18.501 2°51.176 3.766931 2.888834 30.664415 2.421144
2003-02-26 08:39:53 51°18.501 2°51.167 3.766931 2.888834 30.664415 2.421144
2003-02-26 08:39:57 51°18.501 2°51.159 3.76781 2.887151 30.64887 2.421144
2003-02-26 08:40:04 51°18.501 2°51.147 3.767086 2.886519 30.643979 2.421144
2003-02-26 08:40:08 51°18.501 2°51.14 3.765586 2.885572 30.636225 2.454853
2003-02-26 08:40:13 51°18.501 2°51.132 3.761551 2.885151 30.634633 2.488563
2003-02-26 08:40:17 51°18.5 2°51.126 3.760827 2.884941 30.633002 2.488563
2003-02-26 08:40:23 51°18.499 2°51.117 3.760827 2.884941 30.633002 2.488563
2003-02-26 08:40:29 51°18.497 2°51.108 3.76031 2.885046 30.63674 2.522272
2003-02-26 08:40:33 51°18.496 2°51.102 3.759327 2.884731 30.633876 2.488563
2003-02-26 08:40:38 51°18.495 2°51.096 3.75793 2.884099 30.629818 2.387435
2003-02-26 08:40:43 51°18.494 2°51.089 3.758655 2.883573 30.624488 2.387435
2003-02-26 08:40:48 51°18.492 2°51.083 3.754878 2.883784 30.628624 2.387435
2003-02-26 08:40:53 51°18.491 2°51.076 3.754878 2.883784 30.628624 2.387435
2003-02-26 08:40:59 51°18.489 2°51.069 3.753844 2.882205 30.610962 2.387435
2003-02-26 08:41:04 51°18.488 2°51.063 3.75343 2.882416 30.615097 2.353725
2003-02-26 08:41:08 51°18.487 2°51.058 3.751981 2.882205 30.612631 2.387435
2003-02-26 08:41:13 51°18.486 2°51.053 3.751878 2.881679 30.608135 2.353725
2003-02-26 08:41:18 51°18.485 2°51.048 3.750067 2.881679 30.608969 2.320016
2003-02-26 08:41:23 51°18.485 2°51.045 3.750067 2.881679 30.608969 2.320016
2003-02-26 08:41:29 51°18.484 2°51.041 3.749808 2.881048 30.603239 2.353725
2003-02-26 08:41:33 51°18.483 2°51.039 3.748101 2.881153 30.605307 2.286306
2003-02-26 08:41:39 51°18.483 2°51.037 3.747325 2.881048 30.603239 2.320016
2003-02-26 08:41:44 51°18.482 2°51.035 3.750998 2.880942 30.60284 2.320016
2003-02-26 08:41:48 51°18.482 2°51.034 3.754154 2.880521 30.600411 2.286306
2003-02-26 08:41:53 51°18.481 2°51.032 3.754154 2.880521 30.600411 2.286306
2003-02-26 08:41:58 51°18.481 2°51.031 3.758862 2.880837 30.604111 2.286306
2003-02-26 08:42:03 51°18.48 2°51.029 3.763155 2.880416 30.600012 2.218888
2003-02-26 08:42:08 51°18.48 2°51.028 3.765431 2.880521 30.601245 2.218888
2003-02-26 08:42:12 51°18.479 2°51.027 3.764551 2.880627 30.601644 2.286306
2003-02-26 08:42:17 51°18.479 2°51.026 3.762741 2.881153 30.602804 2.252597
2003-02-26 08:42:24 51°18.478 2°51.025 3.762741 2.881153 30.602804 2.252597
2003-02-26 08:42:28 51°18.477 2°51.024 3.762224 2.880942 30.597834 2.252597
2003-02-26 08:42:34 51°18.477 2°51.023 3.764551 2.881784 30.603527 2.252597
2003-02-26 08:42:37 51°18.477 2°51.023 3.765276 2.881784 30.602693 2.252597
2003-02-26 08:42:43 51°18.476 2°51.022 3.762948 2.881679 30.600626 2.185178
2003-02-26 08:42:48 51°18.476 2°51.021 3.760103 2.881679 30.600626 2.218888
2003-02-26 08:42:53 51°18.475 2°51.021 3.760103 2.881679 30.600626 2.218888
2003-02-26 08:42:57 51°18.475 2°51.02 3.759689 2.881363 30.59943 2.353725
2003-02-26 08:43:03 51°18.474 2°51.019 3.760051 2.881679 30.600626 2.218888
2003-02-26 08:43:08 51°18.474 2°51.019 3.760517 2.881574 30.600227 2.252597
2003-02-26 08:43:14 51°18.474 2°51.018 3.764655 2.881574 30.600227 2.252597
2003-02-26 08:43:17 51°18.473 2°51.018 3.76362 2.881679 30.602294 2.218888
2003-02-26 08:43:24 51°18.473 2°51.018 3.76362 2.881679 30.602294 2.218888
2003-02-26 08:43:28 51°18.473 2°51.018 3.765069 2.881574 30.600227 2.252597
2003-02-26 08:43:32 51°18.473 2°51.018 3.76781 2.881889 30.606429 2.252597
2003-02-26 08:43:37 51°18.472 2°51.017 3.767344 2.881574 30.601061 2.218888
2003-02-26 08:43:43 51°18.472 2°51.017 3.767965 2.882205 30.605956 2.353725
2003-02-26 08:43:48 51°18.472 2°51.017 3.766 2.882205 30.605122 2.218888
2003-02-26 08:43:53 51°18.472 2°51.017 3.766 2.882205 30.605122 2.218888
2003-02-26 08:43:57 51°18.472 2°51.017 3.763776 2.88231 30.606355 2.353725
2003-02-26 08:44:03 51°18.471 2°51.018 3.76481 2.882626 30.608385 2.252597
2003-02-26 08:44:08 51°18.471 2°51.018 3.765638 2.882626 30.609219 2.286306
2003-02-26 08:44:13 51°18.471 2°51.018 3.767707 2.882731 30.607949 2.286306
2003-02-26 08:44:19 51°18.471 2°51.018 3.770034 2.88231 30.603852 2.252597
2003-02-26 08:44:24 51°18.471 2°51.018 3.770034 2.88231 30.603852 2.252597
2003-02-26 08:44:28 51°18.471 2°51.019 3.767293 2.881994 30.602656 2.286306
2003-02-26 08:44:33 51°18.471 2°51.019 3.769879 2.882415 30.607588 2.286306
2003-02-26 08:44:39 51°18.471 2°51.019 3.769775 2.88231 30.604686 2.320016
2003-02-26 08:44:44 51°18.47 2°51.02 3.769051 2.882731 30.609617 2.320016
2003-02-26 08:44:49 51°18.47 2°51.02 3.767965 2.882521 30.605484 2.320016
2003-02-26 08:44:53 51°18.47 2°51.02 3.767965 2.882521 30.605484 2.320016
2003-02-26 08:44:59 51°18.47 2°51.021 3.765896 2.882731 30.607115 2.320016
2003-02-26 08:45:04 51°18.47 2°51.021 3.763103 2.882521 30.603816 2.286306
2003-02-26 08:45:09 51°18.471 2°51.022 3.763414 2.882521 30.603816 2.320016
2003-02-26 08:45:13 51°18.47 2°51.022 3.765379 2.883152 30.612046 2.353725
2003-02-26 08:45:19 51°18.471 2°51.023 3.761655 2.882836 30.609182 2.387435
2003-02-26 08:45:24 51°18.471 2°51.023 3.761655 2.882836 30.609182 2.387435
2003-02-26 08:45:28 51°18.471 2°51.024 3.762586 2.882942 30.612083 2.387435
2003-02-26 08:45:33 51°18.471 2°51.024 3.758034 2.883152 30.615383 2.387435
2003-02-26 08:45:39 51°18.47 2°51.025 3.758137 2.883468 30.619081 2.320016
2003-02-26 08:45:44 51°18.47 2°51.026 3.758551 2.882836 30.613353 2.286306
2003-02-26 08:45:49 51°18.471 2°51.027 3.765017 2.882942 30.613752 2.387435
2003-02-26 08:45:53 51°18.471 2°51.027 3.765017 2.882942 30.613752 2.387435
2003-02-26 08:45:58 51°18.471 2°51.028 3.769258 2.882942 30.617924 2.353725
2003-02-26 08:46:04 51°18.471 2°51.029 3.764138 2.88231 30.609692 2.353725
2003-02-26 08:46:09 51°18.471 2°51.029 3.764345 2.882415 30.611759 2.353725
2003-02-26 08:46:13 51°18.471 2°51.03 3.766207 2.881995 30.605993 2.421144
2003-02-26 08:46:19 51°18.471 2°51.031 3.763931 2.882521 30.607986 2.353725
2003-02-26 08:46:23 51°18.471 2°51.032 3.763931 2.882521 30.607986 2.353725
2003-02-26 08:46:29 51°18.471 2°51.033 3.761655 2.882521 30.607986 2.421144
2003-02-26 08:46:33 51°18.471 2°51.033 3.76062 2.882731 30.610452 2.320016
2003-02-26 08:46:39 51°18.472 2°51.034 3.758396 2.882731 30.611286 2.387435
2003-02-26 08:46:44 51°18.472 2°51.035 3.75731 2.882942 30.612917 2.353725
2003-02-26 08:46:49 51°18.472 2°51.036 3.755396 2.883047 30.615819 2.421144
2003-02-26 08:46:53 51°18.472 2°51.036 3.755396 2.883047 30.615819 2.421144
2003-02-26 08:46:59 51°18.473 2°51.037 3.753016 2.883047 30.617488 2.421144
2003-02-26 08:47:04 51°18.473 2°51.038 3.751309 2.882942 30.617924 2.353725
2003-02-26 08:47:08 51°18.473 2°51.039 3.751412 2.883152 30.622895 2.421144
2003-02-26 08:47:13 51°18.473 2°51.04 3.750222 2.882626 30.616729 2.421144
2003-02-26 08:47:19 51°18.473 2°51.041 3.75074 2.88231 30.614699 2.421144
2003-02-26 08:47:24 51°18.474 2°51.042 3.75074 2.88231 30.614699 2.421144
2003-02-26 08:47:29 51°18.474 2°51.043 3.749757 2.882416 30.618436 2.387435
2003-02-26 08:47:33 51°18.474 2°51.044 3.749808 2.88231 30.615534 2.454853
2003-02-26 08:47:39 51°18.474 2°51.045 3.748308 2.8821 30.617241 2.387435
2003-02-26 08:47:44 51°18.475 2°51.046 3.750067 2.8821 30.613902 2.387435
2003-02-26 08:47:49 51°18.475 2°51.047 3.750636 2.881679 30.610638 2.387435
2003-02-26 08:47:53 51°18.475 2°51.048 3.750636 2.881679 30.610638 2.387435
2003-02-26 08:47:58 51°18.475 2°51.049 3.748101 2.881679 30.612308 2.387435
2003-02-26 08:48:04 51°18.475 2°51.05 3.748153 2.881679 30.613143 2.421144
2003-02-26 08:48:09 51°18.476 2°51.051 3.747687 2.881784 30.612706 2.421144
2003-02-26 08:48:13 51°18.476 2°51.052 3.744686 2.8821 30.618076 2.353725
2003-02-26 08:48:19 51°18.476 2°51.053 3.746394 2.881574 30.61024 2.421144
2003-02-26 08:48:23 51°18.477 2°51.054 3.746394 2.881574 30.61024 2.421144
2003-02-26 08:48:28 51°18.477 2°51.055 3.74748 2.881784 30.614376 2.387435
2003-02-26 08:48:33 51°18.477 2°51.056 3.747221 2.881889 30.615609 2.421144
2003-02-26 08:48:39 51°18.477 2°51.057 3.747066 2.881889 30.616444 2.421144
2003-02-26 08:48:43 51°18.478 2°51.058 3.747739 2.881889 30.618114 2.387435
2003-02-26 08:48:48 51°18.478 2°51.06 3.746652 2.881889 30.617279 2.421144
2003-02-26 08:48:53 51°18.479 2°51.061 3.746652 2.881889 30.617279 2.421144
2003-02-26 08:48:58 51°18.479 2°51.062 3.749653 2.881574 30.613579 2.421144
2003-02-26 08:49:04 51°18.479 2°51.064 3.748049 2.881995 30.619348 2.454853
2003-02-26 08:49:08 51°18.48 2°51.064 3.749343 2.881995 30.619348 2.421144
2003-02-26 08:49:13 51°18.48 2°51.066 3.747635 2.8821 30.621416 2.387435
2003-02-26 08:49:19 51°18.48 2°51.067 3.74955 2.8821 30.618911 2.387435
2003-02-26 08:49:24 51°18.481 2°51.068 3.74955 2.8821 30.618911 2.387435
2003-02-26 08:49:29 51°18.481 2°51.069 3.748618 2.8821 30.618076 2.353725
2003-02-26 08:49:33 51°18.481 2°51.071 3.747066 2.882416 30.620941 2.387435
2003-02-26 08:49:39 51°18.482 2°51.072 3.746859 2.8821 30.618076 2.387435
2003-02-26 08:49:44 51°18.482 2°51.073 3.746859 2.8821 30.617241 2.387435
2003-02-26 08:49:49 51°18.483 2°51.074 3.747273 2.882205 30.618475 2.421144
2003-02-26 08:49:53 51°18.483 2°51.075 3.747273 2.882205 30.618475 2.421144
2003-02-26 08:49:59 51°18.483 2°51.076 3.747532 2.881995 30.617678 2.421144
2003-02-26 08:50:03 51°18.483 2°51.077 3.748411 2.8821 30.619746 2.387435
2003-02-26 08:50:09 51°18.484 2°51.079 3.746083 2.8821 30.618911 2.454853
2003-02-26 08:50:13 51°18.484 2°51.08 3.746963 2.8821 30.618911 2.387435
2003-02-26 08:50:19 51°18.485 2°51.081 3.746601 2.881889 30.615609 2.387435
2003-02-26 08:50:23 51°18.485 2°51.082 3.746601 2.881889 30.615609 2.387435
2003-02-26 08:50:29 51°18.485 2°51.083 3.747118 2.881995 30.618513 2.353725
2003-02-26 08:50:33 51°18.486 2°51.084 3.748256 2.8821 30.619746 2.353725
2003-02-26 08:50:38 51°18.486 2°51.086 3.745255 2.881889 30.618114 2.387435
2003-02-26 08:50:43 51°18.486 2°51.087 3.745824 2.881995 30.618513 2.387435
2003-02-26 08:50:49 51°18.487 2°51.088 3.746808 2.881995 30.619348 2.421144
2003-02-26 08:50:53 51°18.488 2°51.09 3.745669 2.881574 30.614414 2.421144
2003-02-26 08:50:58 51°18.488 2°51.091 3.745669 2.881574 30.614414 2.421144
2003-02-26 08:51:04 51°18.489 2°51.092 3.746135 2.881889 30.618114 2.421144
2003-02-26 08:51:09 51°18.489 2°51.093 3.74629 2.881679 30.615647 2.421144
2003-02-26 08:51:13 51°18.489 2°51.094 3.746031 2.881574 30.615249 2.454853
2003-02-26 08:51:19 51°18.49 2°51.096 3.745255 2.881679 30.614812 2.421144
2003-02-26 08:51:23 51°18.49 2°51.096 3.745255 2.881679 30.614812 2.421144
2003-02-26 08:51:29 51°18.49 2°51.098 3.746394 2.881784 30.615211 2.454853
2003-02-26 08:51:33 51°18.491 2°51.099 3.746497 2.881574 30.614414 2.454853
2003-02-26 08:51:39 51°18.491 2°51.101 3.746238 2.881784 30.616881 2.454853
2003-02-26 08:51:44 51°18.492 2°51.102 3.745721 2.881784 30.618551 2.421144
2003-02-26 08:51:49 51°18.492 2°51.103 3.745773 2.881889 30.618949 2.454853
2003-02-26 08:51:53 51°18.493 2°51.104 3.745773 2.881889 30.618949 2.454853
2003-02-26 08:51:59 51°18.493 2°51.106 3.746911 2.881889 30.618114 2.387435
2003-02-26 08:52:04 51°18.493 2°51.107 3.746445 2.881784 30.616881 2.454853
2003-02-26 08:52:09 51°18.493 2°51.108 3.745566 2.881784 30.616046 2.387435
2003-02-26 08:52:13 51°18.493 2°51.109 3.747791 2.881889 30.618114 2.421144
2003-02-26 08:52:19 51°18.491 2°51.11 3.746704 2.881995 30.619348 2.454853
2003-02-26 08:52:24 51°18.489 2°51.111 3.746704 2.881995 30.619348 2.454853
2003-02-26 08:52:29 51°18.486 2°51.113 3.746704 2.881889 30.618114 2.421144
2003-02-26 08:52:33 51°18.484 2°51.114 3.74717 2.88231 30.623048 2.454853
2003-02-26 08:52:39 51°18.48 2°51.117 3.749601 2.8821 30.619746 2.421144
2003-02-26 08:52:44 51°18.476 2°51.12 3.748929 2.8821 30.620581 2.454853
2003-02-26 08:52:49 51°18.471 2°51.125 3.750015 2.881995 30.619348 2.454853
2003-02-26 08:52:53 51°18.468 2°51.128 3.750015 2.881995 30.619348 2.454853
2003-02-26 08:52:59 51°18.462 2°51.135 3.753637 2.8821 30.620581 2.387435
2003-02-26 08:53:03 51°18.459 2°51.14 3.758034 2.881995 30.618513 2.421144
2003-02-26 08:53:08 51°18.454 2°51.147 3.763 2.882521 30.625515 2.387435
2003-02-26 08:53:12 51°18.45 2°51.153 3.763103 2.882521 30.625515 2.454853
2003-02-26 08:53:19 51°18.444 2°51.165 3.763827 2.882416 30.622611 2.387435
2003-02-26 08:53:24 51°18.439 2°51.175 3.763827 2.882416 30.622611 2.387435
2003-02-26 08:53:29 51°18.436 2°51.186 3.763414 2.882837 30.62671 2.387435
2003-02-26 08:53:33 51°18.433 2°51.195 3.763982 2.882731 30.623806 2.421144
2003-02-26 08:53:39 51°18.429 2°51.211 3.763776 2.883152 30.624564 2.387435
2003-02-26 08:53:44 51°18.426 2°51.225 3.76212 2.883468 30.625759 2.387435
2003-02-26 08:53:48 51°18.424 2°51.238 3.763517 2.883468 30.624924 2.353725
2003-02-26 08:53:53 51°18.423 2°51.255 3.763517 2.883468 30.624924 2.353725
2003-02-26 08:53:59 51°18.422 2°51.278 3.763517 2.883257 30.621623 2.387435
2003-02-26 08:54:03 51°18.423 2°51.294 3.764603 2.882942 30.617924 2.286306
2003-02-26 08:54:08 51°18.425 2°51.314 3.762948 2.882731 30.616293 2.353725
2003-02-26 08:54:13 51°18.428 2°51.335 3.762069 2.882836 30.616691 2.218888
2003-02-26 08:54:18 51°18.432 2°51.357 3.757827 2.882626 30.61506 2.252597
2003-02-26 08:54:23 51°18.437 2°51.38 3.757827 2.882626 30.61506 2.252597
2003-02-26 08:54:29 51°18.444 2°51.408 3.755292 2.882415 30.612594 2.185178
2003-02-26 08:54:34 51°18.45 2°51.432 3.756172 2.88231 30.609692 2.286306
2003-02-26 08:54:38 51°18.455 2°51.452 3.75881 2.881889 30.606429 2.286306
2003-02-26 08:54:43 51°18.461 2°51.478 3.760517 2.881995 30.611 2.252597
2003-02-26 08:54:49 51°18.468 2°51.511 3.769206 2.881679 30.608135 2.286306
2003-02-26 08:54:52 51°18.472 2°51.528 3.769206 2.881679 30.608135 2.286306
2003-02-26 08:54:59 51°18.481 2°51.569 3.770189 2.881889 30.610601 2.353725
2003-02-26 08:55:04 51°18.487 2°51.599 3.77081 2.882416 30.615932 2.353725
2003-02-26 08:55:09 51°18.494 2°51.629 3.77293 2.882836 30.616691 2.421144
2003-02-26 08:55:12 51°18.499 2°51.647 3.775257 2.883889 30.625682 2.488563
2003-02-26 08:55:19 51°18.508 2°51.69 3.775309 2.884731 30.632206 2.589691
2003-02-26 08:55:24 51°18.515 2°51.721 3.775309 2.884731 30.632206 2.589691
2003-02-26 08:55:28 51°18.52 2°51.746 3.776861 2.885678 30.642467 2.555982
2003-02-26 08:55:33 51°18.527 2°51.777 3.78136 2.885678 30.641632 2.555982
2003-02-26 08:55:39 51°18.536 2°51.815 3.784359 2.886309 30.649029 2.488563
2003-02-26 08:55:43 51°18.541 2°51.84 3.785858 2.886519 30.648989 2.488563
2003-02-26 08:55:49 51°18.549 2°51.877 3.787771 2.886099 30.641553 2.522272
2003-02-26 08:55:53 51°18.555 2°51.903 3.791546 2.88673 30.647279 2.555982
2003-02-26 08:55:59 51°18.563 2°51.94 3.791546 2.88673 30.647279 2.555982
2003-02-26 08:56:03 51°18.569 2°51.965 3.797129 2.887046 30.648472 2.555982
2003-02-26 08:56:09 51°18.578 2°52.003 3.806124 2.887151 30.6472 2.488563
2003-02-26 08:56:13 51°18.584 2°52.028 3.815272 2.887361 30.647161 2.488563
2003-02-26 08:56:19 51°18.593 2°52.065 3.822094 2.887993 30.652885 2.522272
2003-02-26 08:56:23 51°18.599 2°52.09 3.822094 2.887993 30.652885 2.522272
2003-02-26 08:56:28 51°18.606 2°52.121 3.820957 2.888624 30.657774 2.488563
2003-02-26 08:56:33 51°18.614 2°52.153 3.825504 2.889992 30.668783 2.555982
2003-02-26 08:56:39 51°18.623 2°52.191 3.835838 2.891465 30.677681 2.589691
2003-02-26 08:56:44 51°18.631 2°52.222 3.830517 2.894096 30.703467 2.6234
2003-02-26 08:56:49 51°18.639 2°52.253 3.822249 2.895148 30.708264 2.522272
2003-02-26 08:56:53 51°18.645 2°52.278 3.822249 2.895148 30.708264 2.522272
2003-02-26 08:56:59 51°18.654 2°52.315 3.820699 2.89599 30.71561 2.555982
2003-02-26 08:57:04 51°18.661 2°52.346 3.816513 2.897779 30.730695 2.65711
2003-02-26 08:57:08 51°18.667 2°52.371 3.816719 2.899042 30.742965 2.758238
2003-02-26 08:57:13 51°18.674 2°52.403 3.812481 2.89799 30.733158 2.65711
2003-02-26 08:57:18 51°18.682 2°52.434 3.802816 2.897358 30.727441 2.791947
2003-02-26 08:57:24 51°18.691 2°52.471 3.802816 2.897358 30.727441 2.791947
2003-02-26 08:57:29 51°18.698 2°52.502 3.805348 2.896411 30.719701 2.859366
2003-02-26 08:57:33 51°18.705 2°52.527 3.812171 2.896201 30.718073 2.859366
2003-02-26 08:57:39 51°18.713 2°52.564 3.821164 2.895885 30.717721 2.859366
2003-02-26 08:57:43 51°18.719 2°52.589 3.825711 2.894622 30.707119 2.825657
2003-02-26 08:57:48 51°18.727 2°52.62 3.822301 2.893149 30.694051 2.825657
2003-02-26 08:57:53 51°18.734 2°52.651 3.822301 2.893149 30.694051 2.825657
2003-02-26 08:57:58 51°18.741 2°52.682 3.814859 2.89378 30.698935 2.791947
2003-02-26 08:58:04 51°18.75 2°52.72 3.819768 2.895359 30.713234 2.859366
2003-02-26 08:58:08 51°18.756 2°52.745 3.824058 2.896622 30.723 2.893076
2003-02-26 08:58:12 51°18.762 2°52.77 3.82168 2.897674 30.732808 2.758238
2003-02-26 08:58:19 51°18.772 2°52.813 3.817546 2.896516 30.720932 2.791947
2003-02-26 08:58:24 51°18.78 2°52.845 3.817546 2.896516 30.720932 2.791947
2003-02-26 08:58:29 51°18.788 2°52.876 3.807933 2.896411 30.721372 2.724529
2003-02-26 08:58:33 51°18.794 2°52.901 3.806589 2.897043 30.72709 2.724529
2003-02-26 08:58:39 51°18.803 2°52.938 3.811241 2.897043 30.726254 2.724529
2003-02-26 08:58:43 51°18.809 2°52.963 3.822766 2.896727 30.724231 2.724529
2003-02-26 08:58:48 51°18.816 2°52.995 3.80783 2.895464 30.711123 2.690819
2003-02-26 08:58:53 51°18.824 2°53.026 3.80783 2.895464 30.711123 2.690819
2003-02-26 08:58:58 51°18.832 2°53.057 3.793407 2.893991 30.700563 2.724529
2003-02-26 08:59:04 51°18.841 2°53.094 3.775102 2.89378 30.6981 2.690819
2003-02-26 08:59:09 51°18.848 2°53.126 3.756482 2.895359 30.711563 2.6234
2003-02-26 08:59:13 51°18.854 2°53.151 3.739667 2.895569 30.714026 2.65711
2003-02-26 08:59:19 51°18.863 2°53.188 3.724142 2.892833 30.688684 2.690819
2003-02-26 08:59:23 51°18.869 2°53.213 3.724142 2.892833 30.688684 2.690819
2003-02-26 08:59:28 51°18.876 2°53.244 3.719276 2.889466 30.661787 2.6234
2003-02-26 08:59:34 51°18.885 2°53.282 3.717672 2.885572 30.629548 2.65711
2003-02-26 08:59:39 51°18.892 2°53.313 3.715342 2.880837 30.591597 2.690819
2003-02-26 08:59:44 51°18.9 2°53.344 3.709751 2.876417 30.553983 2.724529
2003-02-26 08:59:49 51°18.907 2°53.375 3.705196 2.873576 30.530683 2.690819
2003-02-26 08:59:53 51°18.913 2°53.4 3.705196 2.873576 30.530683 2.690819
2003-02-26 08:59:58 51°18.921 2°53.432 3.6995 2.871472 30.51351 2.791947
2003-02-26 09:00:03 51°18.928 2°53.463 3.694633 2.870419 30.505337 2.791947
2003-02-26 09:00:09 51°18.938 2°53.5 3.70561 2.868946 30.491396 2.859366
2003-02-26 09:00:13 51°18.944 2°53.525 3.724401 2.867368 30.477051 2.859366
2003-02-26 09:00:18 51°18.951 2°53.556 3.736511 2.866316 30.468041 2.825657
2003-02-26 09:00:24 51°18.96 2°53.594 3.736511 2.866316 30.468041 2.825657
2003-02-26 09:00:29 51°18.968 2°53.625 3.746808 2.864948 30.458655 2.825657
2003-02-26 09:00:33 51°18.975 2°53.649 3.742668 2.864737 30.456187 2.859366
2003-02-26 09:00:39 51°18.984 2°53.686 3.73206 2.867052 30.476678 2.926785
2003-02-26 09:00:43 51°18.99 2°53.712 3.7229 2.870314 30.503271 2.893076